PORTS® Data Listing: 8454049 Quonset Point, RI

CO-OPS RAW PORTS DATA

************************      PRELIMINARY DATA      ************************** 

     THIS RAW DATA HAS NOT BEEN SUBJECT TO THE NATIONAL OCEAN SERVICE'S        
     QUALITY CONTROL OR QUALITY ASSURANCE PROCEDURES AND DOES NOT MEET         
     THE CRITERIA AND STANDARDS OF OFFICIAL NATIONAL OCEAN SERVICE             
     DATA.  IT IS RELEASED FOR LIMITED PUBLIC USE AS PRELIMINARY DATA TO       
     BE USED ONLY WITH APPROPRIATE CAUTION.                                    

************************      PRELIMINARY DATA      ************************** 


       CD   -   Calendar date
       T    -   Time
       TZ   -   Timezone
       PW   -   Predicted water level (feet above MLLW)
       OW   -   Observed water level (feet above MLLW)
       WS   -   Wind speed (knots)
       WD   -   Wind direction (degrees true)
       WG   -   Wind gust (knots)
       AT   -   Air temperature (degrees farenheit)
       WT   -   Water temperature (degrees farenheit)
       AP   -   Air pressure (millibars)
       SA   -   Salinty (PSU - Practical Salinity Units)
       SG   -   Specific gravity
       RH   -   Relative humidity
       AG   -   Air gap (feet)
       VI   -   Visibility (nautical miles)

       ** NOTE **
       A variable that has its data fields filled with "9"s, indicates that
       data was not collected for that sample period.
       **********


STATION NAME: Quonset Point (8454049)
****************************************************************************************************
    CD       T    TZ    PW     OW    WS   WD   WG    AT    WT    AP    SA    SG     RH    AG   VI
****************************************************************************************************
2019/09/16 16:54 EDT    0.60   1.21    8  348   11  72.9  69.6 1015.6 13.6  1.009 -99.9 -99.99 -9.99
2019/09/16 17:00 EDT    0.65   1.25    8  337   11  73.0  69.6 1015.6 13.6  1.009 -99.9 -99.99 -9.99
2019/09/16 17:06 EDT    0.70   1.28    9  341   12  73.2  69.4 1015.5 13.7  1.009 -99.9 -99.99 -9.99
2019/09/16 17:12 EDT    0.76   1.33    8  334   11  73.2  69.4 1015.6 13.7  1.009 -99.9 -99.99 -9.99
2019/09/16 17:18 EDT    0.81   1.39    7  319   12  73.2  69.3 1015.7 13.7  1.009 -99.9 -99.99 -9.99
2019/09/16 17:24 EDT    0.87   1.46    7  325   11  73.0  69.4 1015.7 13.6  1.009 -99.9 -99.99 -9.99
2019/09/16 17:30 EDT    0.92   1.48    6  319   11  73.0  69.4 1015.6 13.6  1.009 -99.9 -99.99 -9.99
2019/09/16 17:36 EDT    0.98   1.56    7  335   10  72.9  69.4 1015.7 13.6  1.009 -99.9 -99.99 -9.99
2019/09/16 17:42 EDT    1.04   1.62    7  342   10  72.7  69.4 1015.7 13.7  1.009 -99.9 -99.99 -9.99
2019/09/16 17:48 EDT    1.10   1.67    8  352    9  72.3  69.4 1015.7 13.6  1.009 -99.9 -99.99 -9.99
2019/09/16 17:54 EDT    1.16   1.74    6  348    8  72.5  69.4 1015.8 13.7  1.009 -99.9 -99.99 -9.99
2019/09/16 18:00 EDT    1.23   1.79    6  349    8  72.3  69.4 1015.8 13.7  1.009 -99.9 -99.99 -9.99
2019/09/16 18:06 EDT    1.29   1.85    6  355    7  72.0  69.4 1015.8 13.7  1.009 -99.9 -99.99 -9.99
2019/09/16 18:12 EDT    1.35   1.87    6  349    9  71.8  69.4 1015.8 13.7  1.009 -99.9 -99.99 -9.99
2019/09/16 18:18 EDT    1.42   1.93    7  343   10  71.8  69.4 1015.9 13.7  1.009 -99.9 -99.99 -9.99
2019/09/16 18:24 EDT    1.49   2.02    6  340    8  71.6  69.4 1016.0 13.6  1.009 -99.9 -99.99 -9.99
2019/09/16 18:30 EDT    1.56   2.08    5  346    9  71.2  69.4 1016.1 13.6  1.009 -99.9 -99.99 -9.99
2019/09/16 18:36 EDT    1.63   2.13    3  325    6  71.1  69.4 1016.1 13.7  1.009 -99.9 -99.99 -9.99
2019/09/16 18:42 EDT    1.70   2.20    4  329    9  70.7  69.4 1016.1 13.6  1.009 -99.9 -99.99 -9.99
2019/09/16 18:48 EDT    1.77   2.28    5  323    7  70.5  69.4 1016.1 13.6  1.009 -99.9 -99.99 -9.99
2019/09/16 18:54 EDT    1.84   2.32    4  320    8  70.5  69.4 1016.1 13.6  1.009 -99.9 -99.99 -9.99
2019/09/16 19:00 EDT    1.92   2.40    5  323    7  70.3  69.4 1016.2 13.6  1.009 -99.9 -99.99 -9.99
2019/09/16 19:06 EDT    1.99   2.51    4  323    6  70.2  69.4 1016.3 13.6  1.009 -99.9 -99.99 -9.99
2019/09/16 19:12 EDT    2.07   2.58    4  323    6  70.2  69.4 1016.4 13.6  1.009 -99.9 -99.99 -9.99
2019/09/16 19:18 EDT    2.14   2.65    3  318    5  70.0  69.4 1016.4 13.6  1.009 -99.9 -99.99 -9.99
2019/09/16 19:24 EDT    2.22   2.71    3  326    5  69.6  69.4 1016.5 13.6  1.009 -99.9 -99.99 -9.99
2019/09/16 19:30 EDT    2.30   2.78    4  330    6  69.3  69.4 1016.5 13.6  1.009 -99.9 -99.99 -9.99
2019/09/16 19:36 EDT    2.38   2.87    4  324    5  68.7  69.4 1016.5 13.6  1.009 -99.9 -99.99 -9.99
2019/09/16 19:42 EDT    2.46   2.95    4  329    6  68.5  69.4 1016.6 13.6  1.009 -99.9 -99.99 -9.99
2019/09/16 19:48 EDT    2.54   3.02    4  325    5  68.5  69.4 1016.6 13.6  1.009 -99.9 -99.99 -9.99
2019/09/16 19:54 EDT    2.62   3.10    4  329    5  68.5  69.4 1016.7 13.6  1.009 -99.9 -99.99 -9.99
2019/09/16 20:00 EDT    2.69   3.17    4  337    6  68.5  69.4 1016.8 13.6  1.009 -99.9 -99.99 -9.99
2019/09/16 20:06 EDT    2.77   3.23    4  337    6  68.2  69.4 1016.8 13.6  1.009 -99.9 -99.99 -9.99
2019/09/16 20:12 EDT    2.85   3.27    4  333    6  68.0  69.4 1016.8 13.6  1.009 -99.9 -99.99 -9.99
2019/09/16 20:18 EDT    2.93   3.35    4  327    4  67.6  69.4 1016.9 13.6  1.009 -99.9 -99.99 -9.99
2019/09/16 20:24 EDT    3.00   3.42    5  335    7  67.5  69.4 1016.9 13.6  1.009 -99.9 -99.99 -9.99
2019/09/16 20:30 EDT    3.07   3.47    4  333    6  67.1  69.4 1017.0 13.6  1.009 -99.9 -99.99 -9.99
2019/09/16 20:36 EDT    3.14   3.55    4  326    6  66.9  69.4 1017.1 13.6  1.009 -99.9 -99.99 -9.99
2019/09/16 20:42 EDT    3.21   3.64    4  328    5  66.7  69.4 1017.2 13.6  1.009 -99.9 -99.99 -9.99
2019/09/16 20:48 EDT    3.28   3.68    4  328    6  66.6  69.4 1017.3 13.6  1.009 -99.9 -99.99 -9.99
2019/09/16 20:54 EDT    3.34   3.74    4  324    6  66.4  69.4 1017.3 13.6  1.009 -99.9 -99.99 -9.99
2019/09/16 21:00 EDT    3.40   3.80    4  330    6  66.0  69.3 1017.4 13.6  1.009 -99.9 -99.99 -9.99
2019/09/16 21:06 EDT    3.46   3.86    4  319    7  65.7  69.3 1017.4 13.7  1.009 -99.9 -99.99 -9.99
2019/09/16 21:12 EDT    3.51   3.89    4  316    7  65.7  69.3 1017.5 13.7  1.009 -99.9 -99.99 -9.99
2019/09/16 21:18 EDT    3.55   3.92    4  320    7  65.3  69.3 1017.5 13.7  1.009 -99.9 -99.99 -9.99
2019/09/16 21:24 EDT    3.60   3.97    5  318    7  64.8  69.3 1017.5 13.7  1.009 -99.9 -99.99 -9.99
2019/09/16 21:30 EDT    3.64   4.01    5  324    8  64.4  69.3 1017.6 13.7  1.009 -99.9 -99.99 -9.99
2019/09/16 21:36 EDT    3.67   4.03    4  335    7  64.6  69.3 1017.6 13.8  1.009 -99.9 -99.99 -9.99
2019/09/16 21:42 EDT    3.70   4.04    4  325    6  64.0  69.3 1017.7 13.8  1.009 -99.9 -99.99 -9.99
2019/09/16 21:48 EDT    3.72   4.07    4  325    7  63.7  69.3 1017.8 13.8  1.009 -99.9 -99.99 -9.99
2019/09/16 21:54 EDT    3.74   4.06    6  334    7  63.5  69.3 1017.8 13.7  1.009 -99.9 -99.99 -9.99
2019/09/16 22:00 EDT    3.75   4.07    6  341    9  63.7  69.3 1017.9 13.6  1.009 -99.9 -99.99 -9.99
2019/09/16 22:06 EDT    3.76   4.07    7   10    9  64.8  69.1 1017.9 13.7  1.009 -99.9 -99.99 -9.99
2019/09/16 22:12 EDT    3.76   4.06    8   29   11  64.9  69.1 1018.0 13.7  1.009 -99.9 -99.99 -9.99
2019/09/16 22:18 EDT    3.76   4.02    7   36    9  64.8  69.1 1018.0 13.7  1.009 -99.9 -99.99 -9.99
2019/09/16 22:24 EDT    3.75   4.03    6   55    9  64.4  69.1 1018.0 13.7  1.009 -99.9 -99.99 -9.99
2019/09/16 22:30 EDT    3.73   4.03    6   52    8  64.0  69.1 1018.0 13.8  1.009 -99.9 -99.99 -9.99
2019/09/16 22:36 EDT    3.71   4.01    4   56    7  64.0  69.1 1018.0 13.7  1.009 -99.9 -99.99 -9.99
2019/09/16 22:42 EDT    3.68   3.98    4   71    5  63.9  69.1 1018.1 13.7  1.009 -99.9 -99.99 -9.99
2019/09/16 22:48 EDT    3.65   3.99    3   56    5  63.9  69.1 1018.2 13.7  1.009 -99.9 -99.99 -9.99
2019/09/16 22:54 EDT    3.62   3.99    3   26    4  63.9  69.1 1018.3 13.6  1.009 -99.9 -99.99 -9.99
2019/09/16 23:00 EDT    3.57   3.93    2   53    3  63.9  69.1 1018.2 13.7  1.009 -99.9 -99.99 -9.99
2019/09/16 23:06 EDT    3.53   3.87    2  319    4  63.0  69.1 1018.2 13.7  1.009 -99.9 -99.99 -9.99
2019/09/16 23:12 EDT    3.47   3.85    3  330    6  62.6  69.1 1018.2 13.7  1.009 -99.9 -99.99 -9.99
2019/09/16 23:18 EDT    3.42   3.80    2  337    5  62.8  68.9 1018.2 13.7  1.009 -99.9 -99.99 -9.99
2019/09/16 23:24 EDT    3.35   3.72    2  328    5  62.1  68.9 1018.3 13.7  1.009 -99.9 -99.99 -9.99
2019/09/16 23:30 EDT    3.29   3.68    4  318    5  61.7  68.9 1018.2 13.7  1.009 -99.9 -99.99 -9.99
2019/09/16 23:36 EDT    3.22   3.63    4  332    6  61.2  68.7 1018.2 13.7  1.009 -99.9 -99.99 -9.99
2019/09/16 23:42 EDT    3.14   3.55    3  320    5  61.0  68.7 1018.2 13.7  1.009 -99.9 -99.99 -9.99
2019/09/16 23:48 EDT    3.06   3.46    4  324    6  60.4  68.7 1018.2 13.7  1.009 -99.9 -99.99 -9.99
2019/09/16 23:54 EDT    2.98   3.40    5  331    6  60.3  68.7 1018.3 13.7  1.009 -99.9 -99.99 -9.99
2019/09/17 00:00 EDT    2.90   3.34    4  322    6  60.4  68.7 1018.4 13.7  1.009 -99.9 -99.99 -9.99
2019/09/17 00:06 EDT    2.81   3.26    3  310    5  60.4  68.5 1018.4 13.7  1.009 -99.9 -99.99 -9.99
2019/09/17 00:12 EDT    2.72   3.16    3  319    5  60.1  68.5 1018.4 13.7  1.009 -99.9 -99.99 -9.99
2019/09/17 00:18 EDT    2.62   3.07    4  319    5  59.9  68.5 1018.4 13.8  1.009 -99.9 -99.99 -9.99
2019/09/17 00:24 EDT    2.53   2.97    3  323    5  59.5  68.5 1018.4 13.8  1.010 -99.9 -99.99 -9.99
2019/09/17 00:30 EDT    2.43   2.86    4  325    5  59.4  68.5 1018.5 13.8  1.009 -99.9 -99.99 -9.99
2019/09/17 00:36 EDT    2.33   2.78    4  323    6  59.2  68.5 1018.5 13.8  1.009 -99.9 -99.99 -9.99
2019/09/17 00:42 EDT    2.22   2.68    4  326    6  59.0  68.5 1018.5 13.8  1.009 -99.9 -99.99 -9.99
2019/09/17 00:48 EDT    2.12   2.55    4  326    6  59.2  68.5 1018.6 13.8  1.010 -99.9 -99.99 -9.99
2019/09/17 00:54 EDT    2.02   2.44    5  327    7  59.0  68.5 1018.7 13.8  1.009 -99.9 -99.99 -9.99
2019/09/17 01:00 EDT    1.91   2.35    5  325    7  59.0  68.4 1018.6 13.8  1.010 -99.9 -99.99 -9.99
2019/09/17 01:06 EDT    1.81   2.25    4  328    6  59.0  68.4 1018.7 13.9  1.010 -99.9 -99.99 -9.99
2019/09/17 01:12 EDT    1.71   2.15    5  332    6  59.2  68.4 1018.7 13.9  1.010 -99.9 -99.99 -9.99
2019/09/17 01:18 EDT    1.60   2.04    4  332    7  59.2  68.4 1018.7 13.9  1.010 -99.9 -99.99 -9.99
2019/09/17 01:24 EDT    1.50   1.94    4  334    6  59.2  68.2 1018.6 13.9  1.010 -99.9 -99.99 -9.99
2019/09/17 01:30 EDT    1.40   1.85    4  333    6  59.2  68.2 1018.6 13.9  1.010 -99.9 -99.99 -9.99
2019/09/17 01:36 EDT    1.30   1.75    4  332    6  59.0  68.4 1018.6 13.8  1.010 -99.9 -99.99 -9.99
2019/09/17 01:42 EDT    1.20   1.65    4  327    5  58.8  68.5 1018.6 13.7  1.009 -99.9 -99.99 -9.99
2019/09/17 01:48 EDT    1.11   1.55    4  321    5  58.5  68.4 1018.6 13.8  1.010 -99.9 -99.99 -9.99
2019/09/17 01:54 EDT    1.01   1.45    4  321    5  58.3  68.4 1018.5 13.7  1.009 -99.9 -99.99 -9.99
2019/09/17 02:00 EDT    0.93   1.31    4  320    6  57.9  68.5 1018.5 13.7  1.009 -99.9 -99.99 -9.99
2019/09/17 02:06 EDT    0.84   1.20    5  324    7  57.6  68.5 1018.5 13.8  1.009 -99.9 -99.99 -9.99
2019/09/17 02:12 EDT    0.76   1.10    4  322    6  57.4  68.5 1018.5 13.7  1.009 -99.9 -99.99 -9.99
2019/09/17 02:18 EDT    0.68   1.02    3  318    6  57.6  68.5 1018.4 13.7  1.009 -99.9 -99.99 -9.99
2019/09/17 02:24 EDT    0.61   0.94    4  318    6  57.2  68.5 1018.4 13.6  1.009 -99.9 -99.99 -9.99
2019/09/17 02:30 EDT    0.54   0.88    4  317    7  57.4  68.5 1018.5 13.6  1.009 -99.9 -99.99 -9.99
2019/09/17 02:36 EDT    0.48   0.82    4  310    6  57.0  68.5 1018.4 13.5  1.009 -99.9 -99.99 -9.99
2019/09/17 02:42 EDT    0.42   0.74    4  310    6  56.8  68.4 1018.5 13.6  1.009 -99.9 -99.99 -9.99
2019/09/17 02:48 EDT    0.36   0.69    4  309    7  56.8  68.4 1018.4 13.6  1.009 -99.9 -99.99 -9.99
2019/09/17 02:54 EDT    0.32   0.66    4  308    6  57.0  68.4 1018.4 13.6  1.009 -99.9 -99.99 -9.99
2019/09/17 03:00 EDT    0.28   0.63    3  311    7  57.0  68.4 1018.4 13.6  1.009 -99.9 -99.99 -9.99
2019/09/17 03:06 EDT    0.24   0.56    3  317    7  57.0  68.4 1018.3 13.6  1.009 -99.9 -99.99 -9.99
2019/09/17 03:12 EDT    0.21   0.53    4  320    7  56.7  68.4 1018.2 13.6  1.009 -99.9 -99.99 -9.99
2019/09/17 03:18 EDT    0.19   0.52    4  321    6  56.7  68.4 1018.2 13.6  1.009 -99.9 -99.99 -9.99
2019/09/17 03:24 EDT    0.17   0.49    4  317    6  56.7  68.4 1018.3 13.6  1.009 -99.9 -99.99 -9.99
2019/09/17 03:30 EDT    0.16   0.45    4  319    6  56.8  68.4 1018.2 13.5  1.009 -99.9 -99.99 -9.99
2019/09/17 03:36 EDT    0.15   0.46    5  320    8  57.0  68.4 1018.1 13.6  1.009 -99.9 -99.99 -9.99
2019/09/17 03:42 EDT    0.15   0.46    5  322    8  57.0  68.4 1018.0 13.5  1.009 -99.9 -99.99 -9.99
2019/09/17 03:48 EDT    0.16   0.48    4  319    7  57.4  68.4 1018.1 13.5  1.009 -99.9 -99.99 -9.99
2019/09/17 03:54 EDT    0.17   0.49    5  324    7  57.4  68.4 1018.1 13.5  1.009 -99.9 -99.99 -9.99
2019/09/17 04:00 EDT    0.19   0.55    6  329    8  57.4  68.4 1018.0 13.5  1.009 -99.9 -99.99 -9.99
2019/09/17 04:06 EDT    0.21   0.61    5  327    8  57.4  68.4 1018.0 13.5  1.009 -99.9 -99.99 -9.99
2019/09/17 04:12 EDT    0.23   0.64    5  325    7  57.6  68.4 1018.0 13.5  1.009 -99.9 -99.99 -9.99
2019/09/17 04:18 EDT    0.26   0.69    6  324    8  57.7  68.4 1018.1 13.5  1.009 -99.9 -99.99 -9.99
2019/09/17 04:24 EDT    0.30   0.74    6  324    9  57.4  68.4 1018.0 13.5  1.009 -99.9 -99.99 -9.99
2019/09/17 04:30 EDT    0.34   0.78    6  326    8  57.4  68.4 1018.0 13.5  1.009 -99.9 -99.99 -9.99
2019/09/17 04:36 EDT    0.38   0.81    6  325    8  57.6  68.4 1018.0 13.5  1.009 -99.9 -99.99 -9.99
2019/09/17 04:42 EDT    0.43   0.85    5  327    7  57.4  68.4 1018.1 13.5  1.009 -99.9 -99.99 -9.99
2019/09/17 04:48 EDT    0.48   0.92    4  332    6  57.4  68.4 1018.1 13.5  1.009 -99.9 -99.99 -9.99
2019/09/17 04:54 EDT    0.53   0.96    4  328    6  56.8  68.4 1018.1 13.5  1.009 -99.9 -99.99 -9.99
2019/09/17 05:00 EDT    0.58   1.00    4  331    5  56.8  68.4 1018.1 13.5  1.009 -99.9 -99.99 -9.99
2019/09/17 05:06 EDT    0.64   1.06    2  344    4  56.3  68.4 1018.2 13.5  1.009 -99.9 -99.99 -9.99
2019/09/17 05:12 EDT    0.70   1.11    3  339    5  56.3  68.4 1018.2 13.5  1.009 -99.9 -99.99 -9.99
2019/09/17 05:18 EDT    0.76   1.16    3  329    4  56.3  68.4 1018.3 13.5  1.009 -99.9 -99.99 -9.99
2019/09/17 05:24 EDT    0.83   1.20    4  331    5  56.3  68.4 1018.3 13.5  1.009 -99.9 -99.99 -9.99
2019/09/17 05:30 EDT    0.89   1.27    4  335    5  55.9  68.4 1018.4 13.5  1.009 -99.9 -99.99 -9.99
2019/09/17 05:36 EDT    0.95   1.36    4  325    5  55.4  68.4 1018.4 13.5  1.009 -99.9 -99.99 -9.99
2019/09/17 05:42 EDT    1.02   1.42    4  322    5  55.4  68.4 1018.5 13.5  1.009 -99.9 -99.99 -9.99
2019/09/17 05:48 EDT    1.09   1.46    3  327    5  55.4  68.4 1018.6 13.5  1.009 -99.9 -99.99 -9.99
2019/09/17 05:54 EDT    1.15   1.51    2  333    4  55.4  68.4 1018.7 13.5  1.009 -99.9 -99.99 -9.99
2019/09/17 06:00 EDT    1.22   1.56    2  353    4  55.4  68.4 1018.8 13.5  1.009 -99.9 -99.99 -9.99
2019/09/17 06:06 EDT    1.29   1.60    3  345    3  55.2  68.4 1018.8 13.5  1.009 -99.9 -99.99 -9.99
2019/09/17 06:12 EDT    1.36   1.67    2  318    3  55.2  68.4 1018.8 13.5  1.009 -99.9 -99.99 -9.99
2019/09/17 06:18 EDT    1.43   1.76    2  311    3  55.4  68.2 1018.9 13.5  1.009 -99.9 -99.99 -9.99
2019/09/17 06:24 EDT    1.50   1.83    1  311    3  55.8  68.4 1019.0 13.5  1.009 -99.9 -99.99 -9.99
2019/09/17 06:30 EDT    1.57   1.89    2  293    3  55.6  68.4 1019.1 13.5  1.009 -99.9 -99.99 -9.99
2019/09/17 06:36 EDT    1.64   1.95    2  294    3  55.9  68.4 1019.1 13.5  1.009 -99.9 -99.99 -9.99
2019/09/17 06:42 EDT    1.71   2.05    1  303    3  56.1  68.4 1019.1 13.5  1.009 -99.9 -99.99 -9.99
2019/09/17 06:48 EDT    1.78   2.13    2  295    3  56.3  68.4 1019.2 13.5  1.009 -99.9 -99.99 -9.99
2019/09/17 06:54 EDT    1.86   2.21    1  289    3  56.8  68.4 1019.3 13.5  1.009 -99.9 -99.99 -9.99
2019/09/17 07:00 EDT    1.93   2.28    1  295    2  57.4  68.4 1019.3 13.5  1.009 -99.9 -99.99 -9.99
2019/09/17 07:06 EDT    2.00   2.33    2  285    3  57.4  68.4 1019.4 13.5  1.009 -99.9 -99.99 -9.99
2019/09/17 07:12 EDT    2.07   2.38    2  289    3  57.4  68.4 1019.4 13.5  1.009 -99.9 -99.99 -9.99
2019/09/17 07:18 EDT    2.15   2.45    2  299    3  57.9  68.4 1019.4 13.5  1.009 -99.9 -99.99 -9.99
2019/09/17 07:24 EDT    2.22   2.52    1  310    3  58.6  68.4 1019.4 13.5  1.009 -99.9 -99.99 -9.99
2019/09/17 07:30 EDT    2.30   2.60    2  307    3  58.6  68.4 1019.4 13.5  1.009 -99.9 -99.99 -9.99
2019/09/17 07:36 EDT    2.37   2.66    3  327    5  58.6  68.4 1019.5 13.5  1.009 -99.9 -99.99 -9.99
2019/09/17 07:42 EDT    2.45   2.73    4  345    5  58.6  68.4 1019.5 13.5  1.009 -99.9 -99.99 -9.99
2019/09/17 07:48 EDT    2.52   2.82    5  350    8  59.9  68.4 1019.6 13.5  1.009 -99.9 -99.99 -9.99
2019/09/17 07:54 EDT    2.60   2.88    4  346    6  60.3  68.4 1019.6 13.5  1.009 -99.9 -99.99 -9.99
2019/09/17 08:00 EDT    2.67   2.95    7  345    9  61.3  68.4 1019.6 13.5  1.009 -99.9 -99.99 -9.99
2019/09/17 08:06 EDT    2.75   3.03    8  348   10  61.9  68.4 1019.6 13.5  1.009 -99.9 -99.99 -9.99
2019/09/17 08:12 EDT    2.82   3.12   11  345   12  62.1  68.4 1019.6 13.4  1.009 -99.9 -99.99 -9.99
2019/09/17 08:18 EDT    2.90   3.20    9  342   13  62.4  68.4 1019.6 13.4  1.009 -99.9 -99.99 -9.99
2019/09/17 08:24 EDT    2.97   3.28    9  336   14  62.6  68.4 1019.6 13.4  1.009 -99.9 -99.99 -9.99
2019/09/17 08:30 EDT    3.04   3.35   11  337   14  63.0  68.4 1019.6 13.4  1.009 -99.9 -99.99 -9.99
2019/09/17 08:36 EDT    3.11   3.46   10  340   15  63.1  68.4 1019.7 13.4  1.009 -99.9 -99.99 -9.99
2019/09/17 08:42 EDT    3.18   3.54   12  344   15  63.1  68.4 1019.7 13.5  1.009 -99.9 -99.99 -9.99
2019/09/17 08:48 EDT    3.25   3.61   10  337   15  63.3 -99.9 1019.7 -9.9 -9.999 -99.9 -99.99 -9.99
2019/09/17 08:54 EDT    3.32   3.68   13  347   16  63.1 -99.9 1019.8 -9.9 -9.999 -99.9 -99.99 -9.99
2019/09/17 09:00 EDT    3.38   3.75   13  346   17  63.3 -99.9 1019.8 -9.9 -9.999 -99.9 -99.99 -9.99
2019/09/17 09:06 EDT    3.44   3.80   11  343   16  63.5 -99.9 1019.8 -9.9 -9.999 -99.9 -99.99 -9.99
2019/09/17 09:12 EDT    3.50   3.88   10  342   15  64.2 -99.9 1019.8 -9.9 -9.999 -99.9 -99.99 -9.99
2019/09/17 09:18 EDT    3.56   3.96   10  347   14  64.4 -99.9 1019.8 -9.9 -9.999 -99.9 -99.99 -9.99
2019/09/17 09:24 EDT    3.61   3.99   10  349   14  64.8 -99.9 1019.8 -9.9 -9.999 -99.9 -99.99 -9.99
2019/09/17 09:30 EDT    3.66   4.04   12  350   15  64.6 -99.9 1019.8 -9.9 -9.999 -99.9 -99.99 -9.99
2019/09/17 09:36 EDT    3.70   4.11   11  350   15  64.9 -99.9 1019.8 -9.9 -9.999 -99.9 -99.99 -9.99
2019/09/17 09:42 EDT    3.74   4.19   10  348   16  64.9 -99.9 1019.7 -9.9 -9.999 -99.9 -99.99 -9.99
2019/09/17 09:48 EDT    3.78   4.21    8  339   13  65.5 -99.9 1019.7 -9.9 -9.999 -99.9 -99.99 -9.99
2019/09/17 09:54 EDT    3.81   4.25    9  348   14  65.8 -99.9 1019.7 -9.9 -9.999 -99.9 -99.99 -9.99
2019/09/17 10:00 EDT    3.84   4.31    8  330   10  66.4 -99.9 1019.7 -9.9 -9.999 -99.9 -99.99 -9.99
2019/09/17 10:06 EDT    3.86   4.34   10  347   16  66.6 -99.9 1019.6 -9.9 -9.999 -99.9 -99.99 -9.99
2019/09/17 10:12 EDT    3.88   4.33   10  352   15  66.7 -99.9 1019.7 -9.9 -9.999 -99.9 -99.99 -9.99
2019/09/17 10:18 EDT    3.89   4.34   12  352   16  67.3 -99.9 1019.6 -9.9 -9.999 -99.9 -99.99 -9.99
2019/09/17 10:24 EDT    3.90   4.35   13  358   16  66.9 -99.9 1019.6 -9.9 -9.999 -99.9 -99.99 -9.99
2019/09/17 10:30 EDT    3.90   4.34   11  346   17  67.3 -99.9 1019.6 -9.9 -9.999 -99.9 -99.99 -9.99
2019/09/17 10:36 EDT    3.89   4.31   13  349   17  66.9 -99.9 1019.6 -9.9 -9.999 -99.9 -99.99 -9.99
2019/09/17 10:42 EDT    3.88   4.31   13  360   18  67.1 -99.9 1019.6 -9.9 -9.999 -99.9 -99.99 -9.99
2019/09/17 10:48 EDT    3.87   4.30   14  359   19  66.9 -99.9 1019.6 -9.9 -9.999 -99.9 -99.99 -9.99
2019/09/17 10:54 EDT    3.85   4.30   14    4   17  66.9 -99.9 1019.6 -9.9 -9.999 -99.9 -99.99 -9.99
2019/09/17 11:00 EDT    3.83   4.28   13  354   19  67.3 -99.9 1019.6 -9.9 -9.999 -99.9 -99.99 -9.99
2019/09/17 11:06 EDT    3.80   4.23   11  346   18  67.1 -99.9 1019.6 -9.9 -9.999 -99.9 -99.99 -9.99
2019/09/17 11:12 EDT    3.76   4.21   12    1   16  67.3 -99.9 1019.6 -9.9 -9.999 -99.9 -99.99 -9.99
2019/09/17 11:18 EDT    3.72   4.17   14    8   17  66.9 -99.9 1019.7 -9.9 -9.999 -99.9 -99.99 -9.99
2019/09/17 11:24 EDT    3.68   4.09   15   14   18  67.1 -99.9 1019.7 -9.9 -9.999 -99.9 -99.99 -9.99
2019/09/17 11:30 EDT    3.63   4.03   14  357   18  67.3 -99.9 1019.7 -9.9 -9.999 -99.9 -99.99 -9.99
2019/09/17 11:36 EDT    3.58   3.97   15    8   19  66.9 -99.9 1019.7 -9.9 -9.999 -99.9 -99.99 -9.99
2019/09/17 11:42 EDT    3.52   3.89   16   21   19  66.6 -99.9 1019.7 -9.9 -9.999 -99.9 -99.99 -9.99
2019/09/17 11:48 EDT    3.46   3.83   14   16   18  66.9 -99.9 1019.7 -9.9 -9.999 -99.9 -99.99 -9.99
2019/09/17 11:54 EDT    3.39   3.77   15   11   18  66.9 -99.9 1019.8 -9.9 -9.999 -99.9 -99.99 -9.99
2019/09/17 12:00 EDT    3.32   3.70   16   23   18  66.4 -99.9 1019.8 -9.9 -9.999 -99.9 -99.99 -9.99
2019/09/17 12:06 EDT    3.25   3.62   15   22   19  66.2 -99.9 1019.8 -9.9 -9.999 -99.9 -99.99 -9.99
2019/09/17 12:12 EDT    3.17   3.52   15   19   17  66.7 -99.9 1019.7 -9.9 -9.999 -99.9 -99.99 -9.99
2019/09/17 12:18 EDT    3.09   3.47   14   19   17  66.9 -99.9 1019.7 -9.9 -9.999 -99.9 -99.99 -9.99
2019/09/17 12:24 EDT    3.01   3.37   14   15   18  67.1 -99.9 1019.7 -9.9 -9.999 -99.9 -99.99 -9.99
2019/09/17 12:30 EDT    2.92   3.27   14   11   17  67.1 -99.9 1019.7 -9.9 -9.999 -99.9 -99.99 -9.99
2019/09/17 12:36 EDT    2.83   3.18   14   24   17  66.7 -99.9 1019.7 -9.9 -9.999 -99.9 -99.99 -9.99
2019/09/17 12:42 EDT    2.74   3.06   12    8   17  67.5 -99.9 1019.7 -9.9 -9.999 -99.9 -99.99 -9.99
2019/09/17 12:48 EDT    2.65   2.98   14    9   16  67.6 -99.9 1019.6 -9.9 -9.999 -99.9 -99.99 -9.99
2019/09/17 12:54 EDT    2.55   2.88   14   16   17  67.1 -99.9 1019.7 -9.9 -9.999 -99.9 -99.99 -9.99
2019/09/17 13:00 EDT    2.46   2.77   13   20   17  67.3 -99.9 1019.7 -9.9 -9.999 -99.9 -99.99 -9.99
2019/09/17 13:06 EDT    2.36   2.67   15   12   18  67.5 -99.9 1019.7 -9.9 -9.999 -99.9 -99.99 -9.99
2019/09/17 13:12 EDT    2.26   2.57   12   13   17  67.3 -99.9 1019.7 -9.9 -9.999 -99.9 -99.99 -9.99
2019/09/17 13:18 EDT    2.16   2.45   13   14   17  67.8 -99.9 1019.6 -9.9 -9.999 -99.9 -99.99 -9.99
2019/09/17 13:24 EDT    2.07   2.34   15   12   18  68.0 -99.9 1019.6 -9.9 -9.999 -99.9 -99.99 -9.99
2019/09/17 13:30 EDT    1.97   2.23   13   18   17  67.5 -99.9 1019.5 -9.9 -9.999 -99.9 -99.99 -9.99
2019/09/17 13:36 EDT    1.87   2.14   14   19   17  68.0 -99.9 1019.5 -9.9 -9.999 -99.9 -99.99 -9.99
2019/09/17 13:42 EDT    1.77   2.02   14   24   18  67.3 -99.9 1019.6 -9.9 -9.999 -99.9 -99.99 -9.99
2019/09/17 13:48 EDT    1.67   1.93   12    4   15  68.2 -99.9 1019.6 -9.9 -9.999 -99.9 -99.99 -9.99
2019/09/17 13:54 EDT    1.58   1.81   16    9   20  68.0 -99.9 1019.6 -9.9 -9.999 -99.9 -99.99 -9.99
2019/09/17 14:00 EDT    1.48   1.71   13  360   19  68.0 -99.9 1019.7 -9.9 -9.999 -99.9 -99.99 -9.99
2019/09/17 14:06 EDT    1.39   1.62   15   23   18  67.3 -99.9 1019.6 -9.9 -9.999 -99.9 -99.99 -9.99
2019/09/17 14:12 EDT    1.30   1.51   15   15   18  67.6 -99.9 1019.6 -9.9 -9.999 -99.9 -99.99 -9.99
2019/09/17 14:18 EDT    1.21   1.45   14   26   17  67.3 -99.9 1019.6 -9.9 -9.999 -99.9 -99.99 -9.99
2019/09/17 14:24 EDT    1.12   1.35   14   26   17  67.3 -99.9 1019.6 -9.9 -9.999 -99.9 -99.99 -9.99
2019/09/17 14:30 EDT    1.04   1.26   14   29   18  67.3 -99.9 1019.5 -9.9 -9.999 -99.9 -99.99 -9.99
2019/09/17 14:36 EDT    0.96   1.20   15   25   18  66.9 -99.9 1019.5 -9.9 -9.999 -99.9 -99.99 -9.99
2019/09/17 14:42 EDT    0.89   1.12   16   23   17  67.6 -99.9 1019.5 -9.9 -9.999 -99.9 -99.99 -9.99
2019/09/17 14:48 EDT    0.82   1.05   15   24   17  67.1 -99.9 1019.5 -9.9 -9.999 -99.9 -99.99 -9.99
2019/09/17 14:54 EDT    0.75   0.99   15   30   17  66.9 -99.9 1019.4 -9.9 -9.999 -99.9 -99.99 -9.99
2019/09/17 15:00 EDT    0.69   0.96   15   36   17  66.9 -99.9 1019.5 -9.9 -9.999 -99.9 -99.99 -9.99
2019/09/17 15:06 EDT    0.63   0.91   13   30   17  66.9 -99.9 1019.5 -9.9 -9.999 -99.9 -99.99 -9.99
2019/09/17 15:12 EDT    0.58   0.83   13   20   18  67.5 -99.9 1019.5 -9.9 -9.999 -99.9 -99.99 -9.99
2019/09/17 15:18 EDT    0.53   0.80   13   20   15  67.6 -99.9 1019.6 -9.9 -9.999 -99.9 -99.99 -9.99
2019/09/17 15:24 EDT    0.49   0.80   14   29   17  66.9 -99.9 1019.7 -9.9 -9.999 -99.9 -99.99 -9.99
2019/09/17 15:30 EDT    0.45   0.76   14   32   17  66.7 -99.9 1019.7 -9.9 -9.999 -99.9 -99.99 -9.99
2019/09/17 15:36 EDT    0.42   0.72   14   34   17  66.7 -99.9 1019.7 -9.9 -9.999 -99.9 -99.99 -9.99
2019/09/17 15:42 EDT    0.39   0.73   12   33   16  66.7 -99.9 1019.7 -9.9 -9.999 -99.9 -99.99 -9.99
2019/09/17 15:48 EDT    0.37   0.74   15   32   17  66.7 -99.9 1019.7 -9.9 -9.999 -99.9 -99.99 -9.99
2019/09/17 15:54 EDT    0.35   0.69   15   36   20  66.7 -99.9 1019.7 -9.9 -9.999 -99.9 -99.99 -9.99
2019/09/17 16:00 EDT    0.34   0.70   13   31   17  66.9 -99.9 1019.7 -9.9 -9.999 -99.9 -99.99 -9.99
2019/09/17 16:06 EDT    0.34   0.76   14   41   17  66.6 -99.9 1019.7 -9.9 -9.999 -99.9 -99.99 -9.99
2019/09/17 16:12 EDT    0.34   0.78   16   36   18  66.6 -99.9 1019.7 -9.9 -9.999 -99.9 -99.99 -9.99
2019/09/17 16:18 EDT    0.34   0.76   15   29   19  66.7 -99.9 1019.6 -9.9 -9.999 -99.9 -99.99 -9.99
2019/09/17 16:24 EDT    0.35   0.78   17   23   19  66.9 -99.9 1019.7 -9.9 -9.999 -99.9 -99.99 -9.99
2019/09/17 16:30 EDT    0.36   0.82   15   41   17  66.7 -99.9 1019.8 -9.9 -9.999 -99.9 -99.99 -9.99
2019/09/17 16:36 EDT    0.38   0.84   14   33   17  67.1 -99.9 1019.8 -9.9 -9.999 -99.9 -99.99 -9.99
2019/09/17 16:42 EDT    0.40   0.84   15   41   17  66.7 -99.9 1019.8 -9.9 -9.999 -99.9 -99.99 -9.99
2019/09/17 16:48 EDT    0.43   0.87   15   47   17  66.7 -99.9 1019.8 -9.9 -9.999 -99.9 -99.99 -9.99
2019/09/17 16:54 EDT    0.46   0.95   16   37   17  66.6 -99.9 1019.7 -9.9 -9.999 -99.9 -99.99 -9.99
2019/09/17 17:00 EDT    0.49   0.96   14   29   16  66.4 -99.9 1019.8 -9.9 -9.999 -99.9 -99.99 -9.99
2019/09/17 17:06 EDT    0.52   0.96   13   28   16  66.6 -99.9 1019.7 -9.9 -9.999 -99.9 -99.99 -9.99
2019/09/17 17:12 EDT    0.56   0.97   12   36   15  66.4 -99.9 1019.8 -9.9 -9.999 -99.9 -99.99 -9.99
2019/09/17 17:18 EDT    0.60   1.02   12   44   13  66.4 -99.9 1019.7 -9.9 -9.999 -99.9 -99.99 -9.99
2019/09/17 17:24 EDT    0.65   1.08   11   35   15  66.4 -99.9 1019.7 -9.9 -9.999 -99.9 -99.99 -9.99
2019/09/17 17:30 EDT    0.69   1.12   13   35   16  66.6 -99.9 1019.8 -9.9 -9.999 -99.9 -99.99 -9.99
2019/09/17 17:36 EDT    0.74   1.19   13   34   14  66.4 -99.9 1019.8 -9.9 -9.999 -99.9 -99.99 -9.99
2019/09/17 17:42 EDT    0.79   1.24   13   39   15  66.4 -99.9 1019.8 -9.9 -9.999 -99.9 -99.99 -9.99
2019/09/17 17:48 EDT    0.84   1.25   12   40   15  66.2 -99.9 1019.9 -9.9 -9.999 -99.9 -99.99 -9.99
2019/09/17 17:54 EDT    0.89   1.30   12   41   15  66.2 -99.9 1020.0 -9.9 -9.999 -99.9 -99.99 -9.99
2019/09/17 18:00 EDT    0.94   1.40   15   34   16  66.2 -99.9 1019.9 -9.9 -9.999 -99.9 -99.99 -9.99
2019/09/17 18:06 EDT    0.99   1.47   15   36   17  65.8 -99.9 1020.0 -9.9 -9.999 -99.9 -99.99 -9.99
2019/09/17 18:12 EDT    1.05   1.49   12   35   15  65.8 -99.9 1020.0 -9.9 -9.999 -99.9 -99.99 -9.99
2019/09/17 18:18 EDT    1.10   1.54   13   49   15  65.5 -99.9 1020.1 -9.9 -9.999 -99.9 -99.99 -9.99
2019/09/17 18:24 EDT    1.16   1.59   15   41   17  65.3 -99.9 1020.1 -9.9 -9.999 -99.9 -99.99 -9.99
2019/09/17 18:30 EDT    1.21   1.65   13   45   16  65.1 -99.9 1020.2 -9.9 -9.999 -99.9 -99.99 -9.99
2019/09/17 18:36 EDT    1.27   1.70   11   46   15  65.1 -99.9 1020.3 -9.9 -9.999 -99.9 -99.99 -9.99
2019/09/17 18:42 EDT    1.33   1.78   12   52   15  64.8 -99.9 1020.3 -9.9 -9.999 -99.9 -99.99 -9.99
2019/09/17 18:48 EDT    1.39   1.82   11   50   13  64.8 -99.9 1020.4 -9.9 -9.999 -99.9 -99.99 -9.99
2019/09/17 18:54 EDT    1.44   1.83   12   61   14  64.8 -99.9 1020.6 -9.9 -9.999 -99.9 -99.99 -9.99
2019/09/17 19:00 EDT    1.50   1.88   14   44   16  64.0 -99.9 1020.6 -9.9 -9.999 -99.9 -99.99 -9.99
2019/09/17 19:06 EDT    1.56   1.96   12   49   15  64.2 -99.9 1020.7 -9.9 -9.999 -99.9 -99.99 -9.99
2019/09/17 19:12 EDT    1.63   2.06   13   68   14  63.9 -99.9 1020.7 -9.9 -9.999 -99.9 -99.99 -9.99
2019/09/17 19:18 EDT    1.69   2.14   11   64   14  63.7 -99.9 1020.8 -9.9 -9.999 -99.9 -99.99 -9.99
2019/09/17 19:24 EDT    1.75   2.20   13   53   15  63.7 -99.9 1020.7 -9.9 -9.999 -99.9 -99.99 -9.99
2019/09/17 19:30 EDT    1.81   2.27   12   60   13  63.3 -99.9 1020.8 -9.9 -9.999 -99.9 -99.99 -9.99
2019/09/17 19:36 EDT    1.88   2.31    9   74   13  63.1 -99.9 1020.9 -9.9 -9.999 -99.9 -99.99 -9.99
2019/09/17 19:42 EDT    1.95   2.40   10   73   11  63.3 -99.9 1021.0 -9.9 -9.999 -99.9 -99.99 -9.99
2019/09/17 19:48 EDT    2.01   2.49   10   59   11  62.8 -99.9 1021.1 -9.9 -9.999 -99.9 -99.99 -9.99
2019/09/17 19:54 EDT    2.08   2.57   11   72   12  62.4 -99.9 1021.1 -9.9 -9.999 -99.9 -99.99 -9.99
2019/09/17 20:00 EDT    2.15   2.61   10   72   12  62.2 -99.9 1021.2 -9.9 -9.999 -99.9 -99.99 -9.99
2019/09/17 20:06 EDT    2.22   2.67   10   73   12  62.2 -99.9 1021.2 -9.9 -9.999 -99.9 -99.99 -9.99
2019/09/17 20:12 EDT    2.29   2.76   10   79   11  62.2 -99.9 1021.2 -9.9 -9.999 -99.9 -99.99 -9.99
2019/09/17 20:18 EDT    2.36   2.84   11   77   12  61.9 -99.9 1021.3 -9.9 -9.999 -99.9 -99.99 -9.99
2019/09/17 20:24 EDT    2.43   2.93   10   79   14  61.9 -99.9 1021.3 -9.9 -9.999 -99.9 -99.99 -9.99
2019/09/17 20:30 EDT    2.50   3.01   11   81   12  61.9 -99.9 1021.4 -9.9 -9.999 -99.9 -99.99 -9.99
2019/09/17 20:36 EDT    2.57   3.08   10   77   12  61.5 -99.9 1021.4 -9.9 -9.999 -99.9 -99.99 -9.99
2019/09/17 20:42 EDT    2.64   3.12   11   71   13  61.5 -99.9 1021.5 -9.9 -9.999 -99.9 -99.99 -9.99
2019/09/17 20:48 EDT    2.71   3.22    8   73   12  61.7 -99.9 1021.5 -9.9 -9.999 -99.9 -99.99 -9.99
2019/09/17 20:54 EDT    2.78   3.31   11   76   15  61.3 -99.9 1021.6 -9.9 -9.999 -99.9 -99.99 -9.99
2019/09/17 21:00 EDT    2.85   3.40   11   79   14  61.2 -99.9 1021.6 -9.9 -9.999 -99.9 -99.99 -9.99
2019/09/17 21:06 EDT    2.92   3.45    9   73   14  61.3 -99.9 1021.7 -9.9 -9.999 -99.9 -99.99 -9.99
2019/09/17 21:12 EDT    2.98   3.49    8   66   11  61.2 -99.9 1021.8 -9.9 -9.999 -99.9 -99.99 -9.99
2019/09/17 21:18 EDT    3.05   3.57    9   60   10  60.8 -99.9 1021.8 -9.9 -9.999 -99.9 -99.99 -9.99
2019/09/17 21:24 EDT    3.11   3.63    7   69    9  61.0 -99.9 1021.8 -9.9 -9.999 -99.9 -99.99 -9.99
2019/09/17 21:30 EDT    3.17   3.68    7   58    9  61.0 -99.9 1021.8 -9.9 -9.999 -99.9 -99.99 -9.99
2019/09/17 21:36 EDT    3.23   3.74    6   70    9  61.0 -99.9 1021.7 -9.9 -9.999 -99.9 -99.99 -9.99
2019/09/17 21:42 EDT    3.28   3.81    7   54    8  61.0 -99.9 1021.8 -9.9 -9.999 -99.9 -99.99 -9.99
2019/09/17 21:48 EDT    3.33   3.86    6   56    9  61.0 -99.9 1021.9 -9.9 -9.999 -99.9 -99.99 -9.99
2019/09/17 21:54 EDT    3.38   3.93    6   57    7  61.0 -99.9 1022.0 -9.9 -9.999 -99.9 -99.99 -9.99
2019/09/17 22:00 EDT    3.42   3.99    6   55    7  61.2 -99.9 1022.1 -9.9 -9.999 -99.9 -99.99 -9.99
2019/09/17 22:06 EDT    3.46   4.03    6   62    7  61.3 -99.9 1022.1 -9.9 -9.999 -99.9 -99.99 -9.99
2019/09/17 22:12 EDT    3.50   4.07    6   57    8  61.3 -99.9 1022.1 -9.9 -9.999 -99.9 -99.99 -9.99
2019/09/17 22:18 EDT    3.53   4.11    6   50    8  61.2 -99.9 1022.0 -9.9 -9.999 -99.9 -99.99 -9.99
2019/09/17 22:24 EDT    3.55   4.14    7   50    9  61.5 -99.9 1022.1 -9.9 -9.999 -99.9 -99.99 -9.99
2019/09/17 22:30 EDT    3.57   4.17    7   53   10  61.3 -99.9 1022.1 -9.9 -9.999 -99.9 -99.99 -9.99
2019/09/17 22:36 EDT    3.59   4.21    7   60    9  61.3 -99.9 1022.1 -9.9 -9.999 -99.9 -99.99 -9.99
2019/09/17 22:42 EDT    3.60   4.22    7   67    9  61.5 -99.9 1022.1 -9.9 -9.999 -99.9 -99.99 -9.99
2019/09/17 22:48 EDT    3.60   4.22    9   57   11  61.3 -99.9 1022.1 -9.9 -9.999 -99.9 -99.99 -9.99
2019/09/17 22:54 EDT    3.60   4.18    8   51   10  61.5 -99.9 1022.1 -9.9 -9.999 -99.9 -99.99 -9.99
2019/09/17 23:00 EDT    3.60   4.19    7   67   10  61.3 -99.9 1022.0 -9.9 -9.999 -99.9 -99.99 -9.99
2019/09/17 23:06 EDT    3.58   4.19    8   60   11  61.7 -99.9 1021.9 -9.9 -9.999 -99.9 -99.99 -9.99
2019/09/17 23:12 EDT    3.57   4.17    8   66   10  61.2 -99.9 1021.9 -9.9 -9.999 -99.9 -99.99 -9.99
2019/09/17 23:18 EDT    3.54   4.14    8   62   11  61.3 -99.9 1021.8 -9.9 -9.999 -99.9 -99.99 -9.99
2019/09/17 23:24 EDT    3.52   4.12    8   52   10  61.3 -99.9 1021.9 -9.9 -9.999 -99.9 -99.99 -9.99
2019/09/17 23:30 EDT    3.48   4.10    8   40   10  61.7 -99.9 1021.9 -9.9 -9.999 -99.9 -99.99 -9.99
2019/09/17 23:36 EDT    3.44   4.10    9   53   10  61.2 -99.9 1022.0 -9.9 -9.999 -99.9 -99.99 -9.99
2019/09/17 23:42 EDT    3.40   4.09    8   56   10  61.3 -99.9 1022.0 -9.9 -9.999 -99.9 -99.99 -9.99
2019/09/17 23:48 EDT    3.35   4.07    8   59   10  61.5 -99.9 1021.9 -9.9 -9.999 -99.9 -99.99 -9.99
2019/09/17 23:54 EDT    3.30   4.01    8   50   10  61.5 -99.9 1021.9 -9.9 -9.999 -99.9 -99.99 -9.99
2019/09/18 00:00 EDT    3.24   3.96    9   33   11  61.2 -99.9 1021.9 -9.9 -9.999 -99.9 -99.99 -9.99
2019/09/18 00:06 EDT    3.18   3.90    8   33   11  61.0 -99.9 1021.9 -9.9 -9.999 -99.9 -99.99 -9.99
2019/09/18 00:12 EDT    3.11   3.88    9   32   11  61.2 -99.9 1022.1 -9.9 -9.999 -99.9 -99.99 -9.99
2019/09/18 00:18 EDT    3.04   3.80    9   31   11  61.0 -99.9 1022.1 -9.9 -9.999 -99.9 -99.99 -9.99
2019/09/18 00:24 EDT    2.96   3.72    9   39   12  61.0 -99.9 1022.0 -9.9 -9.999 -99.9 -99.99 -9.99
2019/09/18 00:30 EDT    2.88   3.64    9   36   11  61.0 -99.9 1022.0 -9.9 -9.999 -99.9 -99.99 -9.99
2019/09/18 00:36 EDT    2.80   3.54    9   33   11  61.0 -99.9 1022.0 -9.9 -9.999 -99.9 -99.99 -9.99
2019/09/18 00:42 EDT    2.72   3.46    9   38   10  61.0 -99.9 1022.0 -9.9 -9.999 -99.9 -99.99 -9.99
2019/09/18 00:48 EDT    2.63   3.36   10   36   11  61.0 -99.9 1022.1 -9.9 -9.999 -99.9 -99.99 -9.99
2019/09/18 00:54 EDT    2.54   3.30    9   28   11  61.0 -99.9 1022.2 -9.9 -9.999 -99.9 -99.99 -9.99
2019/09/18 01:00 EDT    2.45   3.19   10   37   12  61.0 -99.9 1022.2 -9.9 -9.999 -99.9 -99.99 -9.99
2019/09/18 01:06 EDT    2.36   3.10   10   33   12  61.0 -99.9 1022.2 -9.9 -9.999 -99.9 -99.99 -9.99
2019/09/18 01:12 EDT    2.26   3.01    9   31   11  61.2 -99.9 1022.2 -9.9 -9.999 -99.9 -99.99 -9.99
2019/09/18 01:18 EDT    2.16   2.92    9   37   12  61.2 -99.9 1022.3 -9.9 -9.999 -99.9 -99.99 -9.99
2019/09/18 01:24 EDT    2.07   2.80    7   15   11  60.8 -99.9 1022.2 -9.9 -9.999 -99.9 -99.99 -9.99
2019/09/18 01:30 EDT    1.97   2.66    9   20   11  60.8 -99.9 1022.3 -9.9 -9.999 -99.9 -99.99 -9.99
2019/09/18 01:36 EDT    1.87   2.55    9   16   11  61.0 -99.9 1022.3 -9.9 -9.999 -99.9 -99.99 -9.99
2019/09/18 01:42 EDT    1.77   2.43    6    0    9  60.8 -99.9 1022.3 -9.9 -9.999 -99.9 -99.99 -9.99
2019/09/18 01:48 EDT    1.67   2.32    8   11   10  60.8 -99.9 1022.3 -9.9 -9.999 -99.9 -99.99 -9.99
2019/09/18 01:54 EDT    1.58   2.20    8    7   10  61.0 -99.9 1022.2 -9.9 -9.999 -99.9 -99.99 -9.99
2019/09/18 02:00 EDT    1.48   2.11    5  350   10  60.3 -99.9 1022.2 -9.9 -9.999 -99.9 -99.99 -9.99
2019/09/18 02:06 EDT    1.38   1.99    6  343    7  59.9 -99.9 1022.1 -9.9 -9.999 -99.9 -99.99 -9.99
2019/09/18 02:12 EDT    1.29   1.85    6  352    7  60.1 -99.9 1022.1 -9.9 -9.999 -99.9 -99.99 -9.99
2019/09/18 02:18 EDT    1.20   1.77    6  357   11  60.3 -99.9 1022.2 -9.9 -9.999 -99.9 -99.99 -9.99
2019/09/18 02:24 EDT    1.11   1.67   10   27   13  61.3 -99.9 1022.1 -9.9 -9.999 -99.9 -99.99 -9.99
2019/09/18 02:30 EDT    1.02   1.58   11   34   14  61.3 -99.9 1022.1 -9.9 -9.999 -99.9 -99.99 -9.99
2019/09/18 02:36 EDT    0.94   1.47   11   29   13  61.2 -99.9 1022.1 -9.9 -9.999 -99.9 -99.99 -9.99
2019/09/18 02:42 EDT    0.86   1.39   11   32   14  61.3 -99.9 1022.1 -9.9 -9.999 -99.9 -99.99 -9.99
2019/09/18 02:48 EDT    0.78   1.29   12   34   14  61.2 -99.9 1022.2 -9.9 -9.999 -99.9 -99.99 -9.99
2019/09/18 02:54 EDT    0.71   1.19   12   38   15  61.3 -99.9 1022.2 -9.9 -9.999 -99.9 -99.99 -9.99
2019/09/18 03:00 EDT    0.64   1.12   14   31   16  61.0 -99.9 1022.2 -9.9 -9.999 -99.9 -99.99 -9.99
2019/09/18 03:06 EDT    0.58   1.07   14   39   17  61.2 -99.9 1022.2 -9.9 -9.999 -99.9 -99.99 -9.99
2019/09/18 03:12 EDT    0.52   1.00   11   38   16  61.2 -99.9 1022.2 -9.9 -9.999 -99.9 -99.99 -9.99
2019/09/18 03:18 EDT    0.47   0.95   11   17   13  60.8 -99.9 1022.2 -9.9 -9.999 -99.9 -99.99 -9.99
2019/09/18 03:24 EDT    0.42   0.89   10   14   13  61.0 -99.9 1022.2 -9.9 -9.999 -99.9 -99.99 -9.99
2019/09/18 03:30 EDT    0.38   0.83   10   28   12  61.2 -99.9 1022.2 -9.9 -9.999 -99.9 -99.99 -9.99
2019/09/18 03:36 EDT    0.34   0.80   11   15   13  60.8 -99.9 1022.2 -9.9 -9.999 -99.9 -99.99 -9.99
2019/09/18 03:42 EDT    0.31   0.79   10    8   14  60.8 -99.9 1022.2 -9.9 -9.999 -99.9 -99.99 -9.99
2019/09/18 03:48 EDT    0.28   0.79   10   12   14  60.8 -99.9 1022.2 -9.9 -9.999 -99.9 -99.99 -9.99
2019/09/18 03:54 EDT    0.26   0.76   11   14   14  60.8 -99.9 1022.2 -9.9 -9.999 -99.9 -99.99 -9.99
2019/09/18 04:00 EDT    0.25   0.75   13   28   15  60.8 -99.9 1022.3 -9.9 -9.999 -99.9 -99.99 -9.99
2019/09/18 04:06 EDT    0.24   0.76   14   39   16  60.6 -99.9 1022.3 -9.9 -9.999 -99.9 -99.99 -9.99
2019/09/18 04:12 EDT    0.24   0.78   13   25   16  60.8 -99.9 1022.3 -9.9 -9.999 -99.9 -99.99 -9.99
2019/09/18 04:18 EDT    0.24   0.81   14   33   16  60.8 -99.9 1022.3 -9.9 -9.999 -99.9 -99.99 -9.99
2019/09/18 04:24 EDT    0.25   0.82   15   26   16  60.3 -99.9 1022.3 -9.9 -9.999 -99.9 -99.99 -9.99
2019/09/18 04:30 EDT    0.26   0.84   12   33   15  60.4 -99.9 1022.3 -9.9 -9.999 -99.9 -99.99 -9.99
2019/09/18 04:36 EDT    0.28   0.88   12   31   15  60.4 -99.9 1022.3 -9.9 -9.999 -99.9 -99.99 -9.99
2019/09/18 04:42 EDT    0.30   0.94   13   33   15  60.3 -99.9 1022.3 -9.9 -9.999 -99.9 -99.99 -9.99
2019/09/18 04:48 EDT    0.33   0.99   13   36   16  61.0 -99.9 1022.4 -9.9 -9.999 -99.9 -99.99 -9.99
2019/09/18 04:54 EDT    0.37   1.01   12   19   15  60.3 -99.9 1022.4 -9.9 -9.999 -99.9 -99.99 -9.99
2019/09/18 05:00 EDT    0.41   1.06   14   34   17  60.4 -99.9 1022.3 -9.9 -9.999 -99.9 -99.99 -9.99
2019/09/18 05:06 EDT    0.45   1.11   15   26   18  60.3 -99.9 1022.3 -9.9 -9.999 -99.9 -99.99 -9.99
2019/09/18 05:12 EDT    0.49   1.13   16   31   19  60.4  68.2 1022.3 30.0  1.022 -99.9 -99.99 -9.99
2019/09/18 05:18 EDT    0.54   1.19   17   38   21  60.3  68.2 1022.3 30.0  1.022 -99.9 -99.99 -9.99
2019/09/18 05:24 EDT    0.59   1.24   15   25   18  60.1  68.2 1022.4 29.9  1.022 -99.9 -99.99 -9.99
2019/09/18 05:30 EDT    0.65   1.31   16   28   20  60.6  68.2 1022.6 29.9  1.022 -99.9 -99.99 -9.99
2019/09/18 05:36 EDT    0.71   1.35   15   22   19  60.1  68.2 1022.6 30.0  1.022 -99.9 -99.99 -9.99
2019/09/18 05:42 EDT    0.77   1.42   17   30   20  60.3  68.0 1022.6 30.0  1.022 -99.9 -99.99 -9.99
2019/09/18 05:48 EDT    0.83   1.45   15   22   19  59.9  68.0 1022.6 30.0  1.022 -99.9 -99.99 -9.99
2019/09/18 05:54 EDT    0.89   1.50   17   26   19  59.9  68.0 1022.6 30.0  1.022 -99.9 -99.99 -9.99
2019/09/18 06:00 EDT    0.95   1.56   16   24   20  59.9  68.0 1022.7 30.0  1.022 -99.9 -99.99 -9.99
2019/09/18 06:06 EDT    1.02   1.64   17   30   21  59.5  68.0 1022.8 30.0  1.022 -99.9 -99.99 -9.99
2019/09/18 06:12 EDT    1.09   1.68   17   26   21  59.5  68.0 1022.8 30.0  1.022 -99.9 -99.99 -9.99
2019/09/18 06:18 EDT    1.15   1.74   17   19   21  59.4  68.0 1022.8 30.0  1.022 -99.9 -99.99 -9.99
2019/09/18 06:24 EDT    1.22   1.78   16   21   20  59.7  68.0 1022.9 29.9  1.022 -99.9 -99.99 -9.99
2019/09/18 06:30 EDT    1.29   1.83   19   34   22  59.5  68.0 1023.0 29.9  1.022 -99.9 -99.99 -9.99
2019/09/18 06:36 EDT    1.35   1.89   17   25   19  59.2  68.0 1023.2 29.9  1.022 -99.9 -99.99 -9.99
2019/09/18 06:42 EDT    1.42   1.95   17   20   21  58.8  68.0 1023.3 29.9  1.022 -99.9 -99.99 -9.99
2019/09/18 06:48 EDT    1.49   2.02   17   23   21  59.2  68.0 1023.5 30.0  1.022 -99.9 -99.99 -9.99
2019/09/18 06:54 EDT    1.55   2.03   17   16   20  59.0  68.0 1023.6 29.9  1.022 -99.9 -99.99 -9.99
2019/09/18 07:00 EDT    1.62   2.09   14   13   21  58.8  68.0 1023.7 29.9  1.022 -99.9 -99.99 -9.99
2019/09/18 07:06 EDT    1.69   2.18   16   25   19  59.0  68.0 1023.7 29.9  1.022 -99.9 -99.99 -9.99
2019/09/18 07:12 EDT    1.75   2.24   17   15   21  58.8  68.0 1023.7 30.0  1.022 -99.9 -99.99 -9.99
2019/09/18 07:18 EDT    1.82   2.29   17   23   21  59.0  68.0 1023.8 30.0  1.022 -99.9 -99.99 -9.99
2019/09/18 07:24 EDT    1.88   2.36   15   19   22  58.6  68.0 1024.0 30.0  1.022 -99.9 -99.99 -9.99
2019/09/18 07:30 EDT    1.95   2.41   16   17   20  58.8  68.0 1024.1 30.0  1.022 -99.9 -99.99 -9.99
2019/09/18 07:36 EDT    2.02   2.45   17   21   22  58.8  68.0 1024.1 30.0  1.022 -99.9 -99.99 -9.99
2019/09/18 07:42 EDT    2.08   2.53   16   23   22  59.0  68.0 1024.1 30.0  1.022 -99.9 -99.99 -9.99
2019/09/18 07:48 EDT    2.15   2.62   17   29   20  58.8  68.0 1024.1 30.0  1.022 -99.9 -99.99 -9.99
2019/09/18 07:54 EDT    2.21   2.69   17   30   20  58.6  68.0 1024.1 30.0  1.022 -99.9 -99.99 -9.99
2019/09/18 08:00 EDT    2.28   2.75   17   17   20  58.6  68.0 1024.2 30.0  1.022 -99.9 -99.99 -9.99
2019/09/18 08:06 EDT    2.34   2.80   16   27   19  58.8  68.0 1024.3 30.0  1.022 -99.9 -99.99 -9.99
2019/09/18 08:12 EDT    2.41   2.88   16   20   23  58.6  68.0 1024.4 30.0  1.022 -99.9 -99.99 -9.99
2019/09/18 08:18 EDT    2.48   2.96   17   20   20  58.5  68.0 1024.3 30.0  1.022 -99.9 -99.99 -9.99
2019/09/18 08:24 EDT    2.54   3.02   16   27   20  58.6  68.0 1024.4 30.0  1.022 -99.9 -99.99 -9.99
2019/09/18 08:30 EDT    2.61   3.06   15   15   20  58.8  68.0 1024.4 30.0  1.022 -99.9 -99.99 -9.99
2019/09/18 08:36 EDT    2.67   3.15   15   27   20  59.0  68.0 1024.5 29.9  1.022 -99.9 -99.99 -9.99
2019/09/18 08:42 EDT    2.74   3.21   16   19   20  58.6  67.8 1024.5 30.0  1.022 -99.9 -99.99 -9.99
2019/09/18 08:48 EDT    2.81   3.26   17   21   19  58.1  68.0 1024.6 29.9  1.022 -99.9 -99.99 -9.99
2019/09/18 08:54 EDT    2.87   3.33   14   11   19  58.1  68.0 1024.6 29.9  1.022 -99.9 -99.99 -9.99
2019/09/18 09:00 EDT    2.94   3.42   16   23   19  58.1  68.0 1024.7 29.9  1.022 -99.9 -99.99 -9.99
2019/09/18 09:06 EDT    3.00   3.52   16   15   21  58.5  68.0 1024.7 29.9  1.022 -99.9 -99.99 -9.99
2019/09/18 09:12 EDT    3.07   3.59   14   11   20  58.6  67.8 1024.7 30.0  1.022 -99.9 -99.99 -9.99
2019/09/18 09:18 EDT    3.13   3.68   15   11   19  58.5  68.0 1024.9 30.0  1.022 -99.9 -99.99 -9.99
2019/09/18 09:24 EDT    3.19   3.74   16   12   19  58.5  68.0 1024.9 30.0  1.022 -99.9 -99.99 -9.99
2019/09/18 09:30 EDT    3.25   3.79   15   14   20  58.1  68.0 1024.9 30.0  1.022 -99.9 -99.99 -9.99
2019/09/18 09:36 EDT    3.31   3.86   16   10   19  58.3  68.0 1024.9 30.0  1.022 -99.9 -99.99 -9.99
2019/09/18 09:42 EDT    3.37   3.96   15   16   18  57.9  68.0 1024.9 30.0  1.022 -99.9 -99.99 -9.99
2019/09/18 09:48 EDT    3.42   4.01   15   15   19  58.8  68.0 1025.0 29.9  1.022 -99.9 -99.99 -9.99
2019/09/18 09:54 EDT    3.47   4.05   16   13   21  59.0  67.8 1025.0 30.0  1.022 -99.9 -99.99 -9.99
2019/09/18 10:00 EDT    3.52   4.12   17   20   20  58.5  67.8 1025.0 30.0  1.022 -99.9 -99.99 -9.99
2019/09/18 10:06 EDT    3.57   4.18   15   11   21  59.0  67.8 1025.0 29.9  1.022 -99.9 -99.99 -9.99
2019/09/18 10:12 EDT    3.61   4.22   18   26   23  59.2  67.8 1025.0 29.9  1.022 -99.9 -99.99 -9.99
2019/09/18 10:18 EDT    3.65   4.27   18    6   23  59.5  67.8 1024.8 28.8  1.021 -99.9 -99.99 -9.99
2019/09/18 10:24 EDT    3.69   4.32   17    5   23  59.7  67.8 1024.7 29.9  1.022 -99.9 -99.99 -9.99
2019/09/18 10:30 EDT    3.72   4.34   16   13   25  60.1  67.8 1024.8 29.6  1.022 -99.9 -99.99 -9.99
2019/09/18 10:36 EDT    3.74   4.34   17   19   22  59.7  67.8 1024.8 29.9  1.022 -99.9 -99.99 -9.99
2019/09/18 10:42 EDT    3.77   4.40   18   20   23  59.7  67.8 1024.8 29.9  1.022 -99.9 -99.99 -9.99
2019/09/18 10:48 EDT    3.79   4.44   17    4   22  59.7  67.8 1024.8 30.0  1.022 -99.9 -99.99 -9.99
2019/09/18 10:54 EDT    3.80   4.42   17   16   23  60.1  67.8 1024.8 29.9  1.022 -99.9 -99.99 -9.99
2019/09/18 11:00 EDT    3.81   4.44   17   24   22  60.1  67.8 1024.8 29.9  1.022 -99.9 -99.99 -9.99
2019/09/18 11:06 EDT    3.81   4.49   18   10   23  60.3  67.8 1024.8 29.9  1.022 -99.9 -99.99 -9.99
2019/09/18 11:12 EDT    3.81   4.46   20   16   22  60.1  67.8 1024.7 29.9  1.022 -99.9 -99.99 -9.99
2019/09/18 11:18 EDT    3.80   4.42   19   19   25  60.1  67.8 1024.7 29.9  1.022 -99.9 -99.99 -9.99
2019/09/18 11:24 EDT    3.79   4.45   21   12   26  60.8  67.8 1024.7 29.9  1.022 -99.9 -99.99 -9.99
2019/09/18 11:30 EDT    3.77   4.44   18   13   23  60.4  67.8 1024.7 29.9  1.022 -99.9 -99.99 -9.99
2019/09/18 11:36 EDT    3.75   4.39   19   16   22  60.6  67.8 1024.7 29.9  1.022 -99.9 -99.99 -9.99
2019/09/18 11:42 EDT    3.73   4.34   19   16   24  61.3  67.8 1024.5 29.9  1.022 -99.9 -99.99 -9.99
2019/09/18 11:48 EDT    3.69   4.33   18    8   24  60.6  67.8 1024.6 29.9  1.022 -99.9 -99.99 -9.99
2019/09/18 11:54 EDT    3.66   4.32   18    9   21  61.0  67.8 1024.6 29.9  1.022 -99.9 -99.99 -9.99
2019/09/18 12:00 EDT    3.62   4.27   20   23   24  61.3  67.8 1024.6 29.9  1.022 -99.9 -99.99 -9.99
2019/09/18 12:06 EDT    3.57   4.28   17   18   21  60.6  67.8 1024.7 29.9  1.022 -99.9 -99.99 -9.99
2019/09/18 12:12 EDT    3.52   4.22   17   27   22  60.6  67.8 1024.7 29.9  1.022 -99.9 -99.99 -9.99
2019/09/18 12:18 EDT    3.46   4.16   16   16   20  60.8  67.8 1024.7 29.9  1.022 -99.9 -99.99 -9.99
2019/09/18 12:24 EDT    3.41   4.11   16   12   20  61.5  67.8 1024.6 29.9  1.022 -99.9 -99.99 -9.99
2019/09/18 12:30 EDT    3.34   4.08   17    8   20  60.8  68.0 1024.6 29.9  1.022 -99.9 -99.99 -9.99
2019/09/18 12:36 EDT    3.28   4.01   14   12   19  61.3  68.0 1024.7 29.9  1.022 -99.9 -99.99 -9.99
2019/09/18 12:42 EDT    3.21   3.94   19   21   23  60.8  68.0 1024.7 29.9  1.022 -99.9 -99.99 -9.99
2019/09/18 12:48 EDT    3.13   3.88   17   32   20  60.8  68.0 1024.7 29.9  1.022 -99.9 -99.99 -9.99
2019/09/18 12:54 EDT    3.06   3.82   17    9   20  61.2  68.0 1024.7 29.9  1.022 -99.9 -99.99 -9.99
2019/09/18 13:00 EDT    2.98   3.74   17   13   21  61.5  68.0 1024.6 29.8  1.022 -99.9 -99.99 -9.99
2019/09/18 13:06 EDT    2.90   3.67   17   17   21  61.3  68.0 1024.7 29.8  1.022 -99.9 -99.99 -9.99
2019/09/18 13:12 EDT    2.81   3.59   16    9   19  61.0  68.0 1024.7 29.8  1.022 -99.9 -99.99 -9.99
2019/09/18 13:18 EDT    2.73   3.52   16   16   20  61.7  68.0 1024.8 29.9  1.022 -99.9 -99.99 -9.99
2019/09/18 13:24 EDT    2.64   3.45   16   36   19  61.0  68.0 1024.8 29.9  1.022 -99.9 -99.99 -9.99
2019/09/18 13:30 EDT    2.55   3.34   17   27   21  60.8  68.0 1024.8 29.9  1.022 -99.9 -99.99 -9.99
2019/09/18 13:36 EDT    2.46   3.26   17   33   21  61.2  68.0 1024.7 29.9  1.022 -99.9 -99.99 -9.99
2019/09/18 13:42 EDT    2.37   3.16   17   30   22  61.2  68.0 1024.7 29.9  1.022 -99.9 -99.99 -9.99
2019/09/18 13:48 EDT    2.27   3.07   17   28   23  61.2  68.0 1024.7 29.8  1.022 -99.9 -99.99 -9.99
2019/09/18 13:54 EDT    2.18   2.96   16   12   23  61.2  68.0 1024.6 29.8  1.022 -99.9 -99.99 -9.99
2019/09/18 14:00 EDT    2.09   2.85   18   27   20  60.8  68.0 1024.6 29.8  1.022 -99.9 -99.99 -9.99
2019/09/18 14:06 EDT    2.00   2.77   18   20   23  61.7  68.0 1024.5 29.9  1.022 -99.9 -99.99 -9.99
2019/09/18 14:12 EDT    1.90   2.65   20   37   25  60.6  67.8 1024.6 29.9  1.022 -99.9 -99.99 -9.99
2019/09/18 14:18 EDT    1.81   2.54   19   43   24  60.4  67.8 1024.7 29.9  1.022 -99.9 -99.99 -9.99
2019/09/18 14:24 EDT    1.72   2.47   19   43   23  60.1  67.8 1024.7 29.9  1.022 -99.9 -99.99 -9.99
2019/09/18 14:30 EDT    1.63   2.40   18   29   24  60.1  67.8 1024.7 29.9  1.022 -99.9 -99.99 -9.99
2019/09/18 14:36 EDT    1.54   2.28   20   43   24  60.1  67.8 1024.8 29.9  1.022 -99.9 -99.99 -9.99
2019/09/18 14:42 EDT    1.45   2.16   18   35   22  59.9  67.8 1024.9 28.3  1.021 -99.9 -99.99 -9.99
2019/09/18 14:48 EDT    1.37   2.09   17   29   21  60.4  67.8 1024.9 29.9  1.022 -99.9 -99.99 -9.99
2019/09/18 14:54 EDT    1.29   1.99   20   31   25  60.6  67.8 1024.8 29.9  1.022 -99.9 -99.99 -9.99
2019/09/18 15:00 EDT    1.21   1.89   21   35   25  59.9  67.8 1025.0 29.9  1.022 -99.9 -99.99 -9.99
2019/09/18 15:06 EDT    1.13   1.83   17   24   22  60.4  67.8 1025.0 30.0  1.022 -99.9 -99.99 -9.99
2019/09/18 15:12 EDT    1.06   1.78   19   44   22  60.4  67.8 1025.0 30.0  1.022 -99.9 -99.99 -9.99
2019/09/18 15:18 EDT    0.99   1.67   16   37   20  59.9  67.8 1025.0 30.0  1.022 -99.9 -99.99 -9.99
2019/09/18 15:24 EDT    0.92   1.57   16   23   20  60.3  67.8 1025.0 30.0  1.022 -99.9 -99.99 -9.99
2019/09/18 15:30 EDT    0.86   1.51   17   21   20  60.4  67.8 1024.9 30.0  1.022 -99.9 -99.99 -9.99
2019/09/18 15:36 EDT    0.80   1.42   16   30   21  59.9  67.8 1024.9 30.0  1.022 -99.9 -99.99 -9.99
2019/09/18 15:42 EDT    0.75   1.36   17   33   19  59.7  67.8 1024.9 30.0  1.022 -99.9 -99.99 -9.99
2019/09/18 15:48 EDT    0.70   1.31   15   37   20  60.1  68.0 1024.8 29.9  1.022 -99.9 -99.99 -9.99
2019/09/18 15:54 EDT    0.65   1.26   18   28   21  60.3  68.0 1025.0 30.0  1.022 -99.9 -99.99 -9.99
2019/09/18 16:00 EDT    0.61   1.24   17   33   19  60.3  68.0 1025.1 30.0  1.022 -99.9 -99.99 -9.99
2019/09/18 16:06 EDT    0.58   1.19   20   45   23  59.9  68.0 1025.0 29.9  1.022 -99.9 -99.99 -9.99
2019/09/18 16:12 EDT    0.55   1.18   16   42   20  60.3  68.0 1025.1 29.9  1.022 -99.9 -99.99 -9.99
2019/09/18 16:18 EDT    0.52   1.18   17   18   22  60.1  68.0 1025.0 29.9  1.022 -99.9 -99.99 -9.99
2019/09/18 16:24 EDT    0.50   1.18   16   28   20  60.3  68.0 1025.1 29.9  1.022 -99.9 -99.99 -9.99
2019/09/18 16:30 EDT    0.49   1.16   17   31   21  60.3  68.0 1025.1 29.9  1.022 -99.9 -99.99 -9.99
2019/09/18 16:36 EDT    0.48   1.15   17   32   22  60.1  67.8 1025.2 30.0  1.022 -99.9 -99.99 -9.99
2019/09/18 16:42 EDT    0.47   1.17   18   31   22  59.9  67.8 1025.2 30.0  1.022 -99.9 -99.99 -9.99
2019/09/18 16:48 EDT    0.47   1.11   15   27   21  60.1  67.8 1025.4 30.0  1.022 -99.9 -99.99 -9.99
2019/09/18 16:54 EDT    0.47   1.13   16   14   20  60.3  67.8 1025.4 30.0  1.022 -99.9 -99.99 -9.99
2019/09/18 17:00 EDT    0.48   1.17   16   25   20  60.3  67.8 1025.5 30.0  1.022 -99.9 -99.99 -9.99
2019/09/18 17:06 EDT    0.49   1.17   18   37   22  59.5  67.8 1025.5 30.0  1.022 -99.9 -99.99 -9.99
2019/09/18 17:12 EDT    0.51   1.19   17   34   22  60.1  67.8 1025.6 30.0  1.022 -99.9 -99.99 -9.99
2019/09/18 17:18 EDT    0.53   1.24   17   36   21  59.7  67.8 1025.7 30.0  1.022 -99.9 -99.99 -9.99
2019/09/18 17:24 EDT    0.55   1.27   15   19   21  60.1  67.8 1025.7 30.0  1.022 -99.9 -99.99 -9.99
2019/09/18 17:30 EDT    0.58   1.30   18   37   23  59.5  67.8 1025.8 30.0  1.022 -99.9 -99.99 -9.99
2019/09/18 17:36 EDT    0.61   1.31   19   22   22  59.4  67.8 1025.7 30.0  1.022 -99.9 -99.99 -9.99
2019/09/18 17:42 EDT    0.64   1.36   18   40   21  59.4  67.8 1025.8 30.0  1.022 -99.9 -99.99 -9.99
2019/09/18 17:48 EDT    0.68   1.42   17   38   22  59.0  67.8 1025.9 30.0  1.022 -99.9 -99.99 -9.99
2019/09/18 17:54 EDT    0.72   1.40   14   35   18  59.0  67.8 1025.8 30.0  1.022 -99.9 -99.99 -9.99
2019/09/18 18:00 EDT    0.75   1.42   16   26   20  59.4  67.8 1025.8 30.0  1.022 -99.9 -99.99 -9.99
2019/09/18 18:06 EDT    0.80   1.45   18   35   20  59.0  67.8 1025.8 30.0  1.022 -99.9 -99.99 -9.99
2019/09/18 18:12 EDT    0.84   1.49   17   27   20  59.2  67.8 1025.8 30.0  1.022 -99.9 -99.99 -9.99
2019/09/18 18:18 EDT    0.88   1.50   19   31   22  58.6  67.8 1025.8 30.0  1.022 -99.9 -99.99 -9.99
2019/09/18 18:24 EDT    0.93   1.48   17   23   21  58.5  67.8 1025.9 30.0  1.022 -99.9 -99.99 -9.99
2019/09/18 18:30 EDT    0.97   1.59   17   22   22  58.6  67.8 1025.9 29.9  1.022 -99.9 -99.99 -9.99
2019/09/18 18:36 EDT    1.02   1.63   18   24   21  58.1  67.8 1025.9 29.9  1.022 -99.9 -99.99 -9.99
2019/09/18 18:42 EDT    1.07   1.65   17   18   23  58.3  67.6 1026.0 30.0  1.022 -99.9 -99.99 -9.99
2019/09/18 18:48 EDT    1.11   1.71   18   20   22  58.3  67.6 1026.1 30.0  1.022 -99.9 -99.99 -9.99
2019/09/18 18:54 EDT    1.16   1.79   16   31   18  58.5  67.6 1026.2 29.8  1.022 -99.9 -99.99 -9.99
2019/09/18 19:00 EDT    1.21   1.80   18   23   20  58.3  67.8 1026.2 20.5  1.015 -99.9 -99.99 -9.99
2019/09/18 19:06 EDT    1.26   1.86   17   31   21  58.3  67.8 1026.2 19.3  1.014 -99.9 -99.99 -9.99
2019/09/18 19:12 EDT    1.31   1.91   19   27   22  58.1  67.8 1026.3 20.1  1.014 -99.9 -99.99 -9.99
2019/09/18 19:18 EDT    1.36   1.92   16   32   20  58.1  67.6 1026.4 19.7  1.014 -99.9 -99.99 -9.99
2019/09/18 19:24 EDT    1.40   1.96   17   24   20  57.9  67.6 1026.3 19.6  1.014 -99.9 -99.99 -9.99
2019/09/18 19:30 EDT    1.45   2.03   16   34   19  57.9  67.6 1026.3 20.1  1.014 -99.9 -99.99 -9.99
2019/09/18 19:36 EDT    1.50   2.09   17   31   21  57.6  67.8 1026.3 19.8  1.014 -99.9 -99.99 -9.99
2019/09/18 19:42 EDT    1.55   2.14   16   19   20  57.2  67.6 1026.2 19.8  1.014 -99.9 -99.99 -9.99
2019/09/18 19:48 EDT    1.60   2.20   16   28   19  57.6  67.6 1026.2 20.1  1.014 -99.9 -99.99 -9.99
2019/09/18 19:54 EDT    1.66   2.28   16   19   19  57.2  67.6 1026.3 19.9  1.014 -99.9 -99.99 -9.99
2019/09/18 20:00 EDT    1.71   2.34   16   24   21  57.4  67.6 1026.3 20.1  1.014 -99.9 -99.99 -9.99
2019/09/18 20:06 EDT    1.76   2.37   17   22   20  57.2  67.6 1026.4 21.1  1.015 -99.9 -99.99 -9.99
2019/09/18 20:12 EDT    1.81   2.42   16   31   20  57.4  67.6 1026.4 21.0  1.015 -99.9 -99.99 -9.99
2019/09/18 20:18 EDT    1.87   2.53   16   26   19  57.4  67.6 1026.5 20.3  1.015 -99.9 -99.99 -9.99
2019/09/18 20:24 EDT    1.92   2.59   16   28   19  57.2  67.6 1026.6 20.7  1.015 -99.9 -99.99 -9.99
2019/09/18 20:30 EDT    1.98   2.66   17   25   20  56.8  67.6 1026.7 20.5  1.015 -99.9 -99.99 -9.99
2019/09/18 20:36 EDT    2.04   2.75   15   33   20  57.2  67.6 1026.8 20.1  1.014 -99.9 -99.99 -9.99
2019/09/18 20:42 EDT    2.09   2.80   15   33   20  57.0  67.6 1026.8 21.1  1.015 -99.9 -99.99 -9.99
2019/09/18 20:48 EDT    2.15   2.86   15   36   18  56.7  67.6 1026.9 21.5  1.015 -99.9 -99.99 -9.99
2019/09/18 20:54 EDT    2.21   2.93   14   36   17  56.7  67.6 1026.9 20.5  1.015 -99.9 -99.99 -9.99
2019/09/18 21:00 EDT    2.28   3.04   16   34   18  57.0  67.6 1026.8 21.5  1.015 -99.9 -99.99 -9.99
2019/09/18 21:06 EDT    2.34   3.09   14   37   17  57.0  67.6 1026.9 21.0  1.015 -99.9 -99.99 -9.99
2019/09/18 21:12 EDT    2.40   3.14   15   37   17  57.0  67.6 1027.0 20.5  1.015 -99.9 -99.99 -9.99
2019/09/18 21:18 EDT    2.46   3.23   14   38   18  56.5  67.6 1027.0 20.7  1.015 -99.9 -99.99 -9.99
2019/09/18 21:24 EDT    2.53   3.32   13   38   16  56.5  67.6 1026.9 20.2  1.014 -99.9 -99.99 -9.99
2019/09/18 21:30 EDT    2.59   3.40   12   43   16  56.3  67.6 1026.9 20.2  1.014 -99.9 -99.99 -9.99
2019/09/18 21:36 EDT    2.65   3.50   12   42   16  56.7  67.6 1027.0 20.0  1.014 -99.9 -99.99 -9.99
2019/09/18 21:42 EDT    2.72   3.57   13   34   15  56.7  67.6 1027.1 19.9  1.014 -99.9 -99.99 -9.99
2019/09/18 21:48 EDT    2.78   3.62   14   34   16  56.5  67.6 1027.2 19.2  1.014 -99.9 -99.99 -9.99
2019/09/18 21:54 EDT    2.84   3.69   11   33   16  56.8  67.6 1027.3 20.4  1.015 -99.9 -99.99 -9.99
2019/09/18 22:00 EDT    2.90   3.76   13   25   16  56.7  67.6 1027.2 19.9  1.014 -99.9 -99.99 -9.99
2019/09/18 22:06 EDT    2.96   3.82   13   18   16  56.3  67.6 1027.2 20.1  1.014 -99.9 -99.99 -9.99
2019/09/18 22:12 EDT    3.02   3.86   13   23   15  56.5  67.6 1027.3 19.7  1.014 -99.9 -99.99 -9.99
2019/09/18 22:18 EDT    3.07   3.91   13   22   16  56.7  67.6 1027.3 19.7  1.014 -99.9 -99.99 -9.99
2019/09/18 22:24 EDT    3.13   3.95   14   38   17  56.7  67.6 1027.4 20.9  1.015 -99.9 -99.99 -9.99
2019/09/18 22:30 EDT    3.18   4.01   14   20   16  56.7  67.6 1027.4 19.6  1.014 -99.9 -99.99 -9.99
2019/09/18 22:36 EDT    3.22   4.06   12   28   14  56.8  67.6 1027.3 19.4  1.014 -99.9 -99.99 -9.99
2019/09/18 22:42 EDT    3.27   4.13   13   32   16  56.8  67.6 1027.3 19.9  1.014 -99.9 -99.99 -9.99
2019/09/18 22:48 EDT    3.30   4.19   13   34   15  56.8  67.6 1027.3 20.5  1.015 -99.9 -99.99 -9.99
2019/09/18 22:54 EDT    3.34   4.20   12   31   16  56.8  67.6 1027.2 20.5  1.015 -99.9 -99.99 -9.99
2019/09/18 23:00 EDT    3.37   4.25   14   33   16  56.8  67.6 1027.2 21.2  1.015 -99.9 -99.99 -9.99
2019/09/18 23:06 EDT    3.40   4.25   13   32   15  57.0  67.6 1027.2 21.5  1.015 -99.9 -99.99 -9.99
2019/09/18 23:12 EDT    3.42   4.27   13   33   16  56.8  67.5 1027.2 21.5  1.015 -99.9 -99.99 -9.99
2019/09/18 23:18 EDT    3.43   4.26   13   26   16  56.8  67.5 1027.1 21.3  1.015 -99.9 -99.99 -9.99
2019/09/18 23:24 EDT    3.45   4.26   13   17   16  56.7  67.5 1027.0 21.6  1.016 -99.9 -99.99 -9.99
2019/09/18 23:30 EDT    3.45   4.25   15   28   17  56.8  67.5 1027.0 21.4  1.015 -99.9 -99.99 -9.99
2019/09/18 23:36 EDT    3.45   4.24   14   25   17  56.8  67.5 1027.0 21.4  1.015 -99.9 -99.99 -9.99
2019/09/18 23:42 EDT    3.45   4.21   13   34   17  56.7  67.5 1027.1 20.3  1.015 -99.9 -99.99 -9.99
2019/09/18 23:48 EDT    3.44   4.19   14   42   17  57.0  67.5 1027.0 20.3  1.015 -99.9 -99.99 -9.99
2019/09/18 23:54 EDT    3.42   4.17   14   35   17  56.5  67.3 1026.9 21.3  1.015 -99.9 -99.99 -9.99
2019/09/19 00:00 EDT    3.40   4.18   14   34   17  56.8  67.1 1026.9 21.6  1.016 -99.9 -99.99 -9.99
2019/09/19 00:06 EDT    3.37   4.14   14   35   17  56.3  67.3 1026.8 21.1  1.015 -99.9 -99.99 -9.99
2019/09/19 00:12 EDT    3.34   4.13   14   37   16  56.5  67.3 1026.9 20.8  1.015 -99.9 -99.99 -9.99
2019/09/19 00:18 EDT    3.30   4.11   14   38   17  56.5  67.3 1026.9 21.1  1.015 -99.9 -99.99 -9.99
2019/09/19 00:24 EDT    3.26   4.06   14   30   16  56.7  67.3 1026.9 21.3  1.015 -99.9 -99.99 -9.99
2019/09/19 00:30 EDT    3.21   4.00   13   36   16  56.8  67.3 1026.9 20.5  1.015 -99.9 -99.99 -9.99
2019/09/19 00:36 EDT    3.16   3.92   13   33   16  56.7  67.1 1026.7 20.6  1.015 -99.9 -99.99 -9.99
2019/09/19 00:42 EDT    3.10   3.85   14   37   17  56.5  67.1 1026.7 20.8  1.015 -99.9 -99.99 -9.99
2019/09/19 00:48 EDT    3.04   3.79   13   29   16  56.7  67.1 1026.8 20.7  1.015 -99.9 -99.99 -9.99
2019/09/19 00:54 EDT    2.98   3.73   10    2   17  54.3  67.1 1026.7 21.4  1.015 -99.9 -99.99 -9.99
2019/09/19 01:00 EDT    2.91   3.64    5  341    7  52.2  67.1 1026.7 20.9  1.015 -99.9 -99.99 -9.99
2019/09/19 01:06 EDT    2.83   3.57    6  334   10  52.2  67.1 1026.8 20.4  1.015 -99.9 -99.99 -9.99
2019/09/19 01:12 EDT    2.76   3.46    5  325    8  52.0  67.1 1026.8 20.7  1.015 -99.9 -99.99 -9.99
2019/09/19 01:18 EDT    2.68   3.35    6  325    8  51.8  67.1 1026.6 21.1  1.015 -99.9 -99.99 -9.99
2019/09/19 01:24 EDT    2.59   3.29    6  323    8  51.6  67.1 1026.5 20.4  1.015 -99.9 -99.99 -9.99
2019/09/19 01:30 EDT    2.51   3.25    5  326    8  51.3  67.3 1026.6 19.8  1.014 -99.9 -99.99 -9.99
2019/09/19 01:36 EDT    2.42   3.17    6  326    9  51.1  67.1 1026.7 19.5  1.014 -99.9 -99.99 -9.99
2019/09/19 01:42 EDT    2.33   3.07    5  322    8  51.1  67.3 1026.7 20.0  1.014 -99.9 -99.99 -9.99
2019/09/19 01:48 EDT    2.24   2.94    5  315    8  50.9  67.3 1026.7 19.6  1.014 -99.9 -99.99 -9.99
2019/09/19 01:54 EDT    2.15   2.82    5  323    8  50.9  67.3 1026.6 19.9  1.014 -99.9 -99.99 -9.99
2019/09/19 02:00 EDT    2.06   2.70    6  322    8  50.7  67.3 1026.6 19.6  1.014 -99.9 -99.99 -9.99
2019/09/19 02:06 EDT    1.96   2.62    6  326    8  50.5  67.3 1026.7 19.6  1.014 -99.9 -99.99 -9.99
2019/09/19 02:12 EDT    1.87   2.54    5  322    7  50.5  67.3 1026.7 19.2  1.014 -99.9 -99.99 -9.99
2019/09/19 02:18 EDT    1.77   2.42    5  326    7  50.4  67.3 1026.7 21.0  1.015 -99.9 -99.99 -9.99
2019/09/19 02:24 EDT    1.68   2.29    4  325    6  50.5  67.3 1026.6 21.2  1.015 -99.9 -99.99 -9.99
2019/09/19 02:30 EDT    1.59   2.16    4  319    7  50.4  67.3 1026.5 21.5  1.015 -99.9 -99.99 -9.99
2019/09/19 02:36 EDT    1.49   2.07    4  324    6  50.2  67.3 1026.6 21.3  1.015 -99.9 -99.99 -9.99
2019/09/19 02:42 EDT    1.40   1.97    5  325    8  50.5  67.1 1026.5 21.1  1.015 -99.9 -99.99 -9.99
2019/09/19 02:48 EDT    1.31   1.91    5  331    7  50.4  67.1 1026.5 21.0  1.015 -99.9 -99.99 -9.99
2019/09/19 02:54 EDT    1.23   1.82    4  325    7  50.4  67.1 1026.5 21.4  1.015 -99.9 -99.99 -9.99
2019/09/19 03:00 EDT    1.14   1.73    4  324    6  50.4  67.1 1026.5 21.5  1.016 -99.9 -99.99 -9.99
2019/09/19 03:06 EDT    1.06   1.64    4  322    5  50.0  67.1 1026.5 21.0  1.015 -99.9 -99.99 -9.99
2019/09/19 03:12 EDT    0.98   1.56    4  320    5  50.0  67.3 1026.4 20.3  1.015 -99.9 -99.99 -9.99
2019/09/19 03:18 EDT    0.91   1.51    4  324    6  49.8  67.3 1026.5 21.2  1.015 -99.9 -99.99 -9.99
2019/09/19 03:24 EDT    0.83   1.45    5  323    6  49.8  67.5 1026.4 20.1  1.014 -99.9 -99.99 -9.99
2019/09/19 03:30 EDT    0.77   1.34    4  321    6  49.8  67.3 1026.4 21.5  1.015 -99.9 -99.99 -9.99
2019/09/19 03:36 EDT    0.70   1.21    4  338    6  49.8  67.5 1026.5 21.1  1.015 -99.9 -99.99 -9.99
2019/09/19 03:42 EDT    0.64   1.15    5  334    7  49.8  67.3 1026.5 21.4  1.015 -99.9 -99.99 -9.99
2019/09/19 03:48 EDT    0.59   1.11    6  338    8  49.8  67.3 1026.6 21.4  1.015 -99.9 -99.99 -9.99
2019/09/19 03:54 EDT    0.54   1.02    6  338    8  49.6  67.3 1026.5 21.7  1.016 -99.9 -99.99 -9.99
2019/09/19 04:00 EDT    0.49   0.96    6  344    8  49.5  67.1 1026.5 21.3  1.015 -99.9 -99.99 -9.99
2019/09/19 04:06 EDT    0.45   0.97    5  351    7  49.8  67.1 1026.5 21.4  1.015 -99.9 -99.99 -9.99
2019/09/19 04:12 EDT    0.42   0.96    5  340    7  49.8  67.3 1026.5 22.2  1.016 -99.9 -99.99 -9.99
2019/09/19 04:18 EDT    0.39   0.92    4  343    7  49.6  67.1 1026.4 21.7  1.016 -99.9 -99.99 -9.99
2019/09/19 04:24 EDT    0.37   0.91    6  335    8  49.6  67.1 1026.3 21.8  1.016 -99.9 -99.99 -9.99
2019/09/19 04:30 EDT    0.35   0.91    7  338    9  49.8  66.9 1026.3 21.2  1.015 -99.9 -99.99 -9.99
2019/09/19 04:36 EDT    0.34   0.90    7  338   10  49.8  66.9 1026.4 21.8  1.016 -99.9 -99.99 -9.99
2019/09/19 04:42 EDT    0.33   0.91    7  338    9  49.6  66.9 1026.3 21.8  1.016 -99.9 -99.99 -9.99
2019/09/19 04:48 EDT    0.33   0.91    7  335   10  49.1  66.9 1026.3 22.0  1.016 -99.9 -99.99 -9.99
2019/09/19 04:54 EDT    0.33   0.93    7  336    9  48.9  66.9 1026.3 21.8  1.016 -99.9 -99.99 -9.99
2019/09/19 05:00 EDT    0.34   0.95    5  334    9  49.1  66.9 1026.2 21.9  1.016 -99.9 -99.99 -9.99
2019/09/19 05:06 EDT    0.36   0.96    6  336    9  48.6  66.9 1026.3 21.7  1.016 -99.9 -99.99 -9.99
2019/09/19 05:12 EDT    0.38   0.98    6  338    8  48.9  66.9 1026.4 22.1  1.016 -99.9 -99.99 -9.99
2019/09/19 05:18 EDT    0.40   1.06    7  338    9  48.9  66.9 1026.5 22.2  1.016 -99.9 -99.99 -9.99
2019/09/19 05:24 EDT    0.43   1.09    6  338    8  49.1  66.7 1026.5 21.9  1.016 -99.9 -99.99 -9.99
2019/09/19 05:30 EDT    0.47   1.07    6  341    8  49.1  66.7 1026.7 22.1  1.016 -99.9 -99.99 -9.99
2019/09/19 05:36 EDT    0.51   1.11    7  341   10  48.9  66.7 1026.7 22.1  1.016 -99.9 -99.99 -9.99
2019/09/19 05:42 EDT    0.55   1.18    6  339   10  49.1  66.7 1026.7 22.1  1.016 -99.9 -99.99 -9.99
2019/09/19 05:48 EDT    0.59   1.16    7  337   10  48.9  66.7 1026.6 21.9  1.016 -99.9 -99.99 -9.99
2019/09/19 05:54 EDT    0.64   1.18    6  343   10  49.1  66.7 1026.8 22.0  1.016 -99.9 -99.99 -9.99
2019/09/19 06:00 EDT    0.70   1.26    5  336    8  48.9  66.7 1026.8 21.8  1.016 -99.9 -99.99 -9.99
2019/09/19 06:06 EDT    0.75   1.30    4  334    7  49.1  66.7 1026.9 21.7  1.016 -99.9 -99.99 -9.99
2019/09/19 06:12 EDT    0.81   1.34    4  340    6  48.7  66.7 1026.9 21.2  1.015 -99.9 -99.99 -9.99
2019/09/19 06:18 EDT    0.87   1.43    3  332    7  48.6  66.7 1026.9 22.2  1.016 -99.9 -99.99 -9.99
2019/09/19 06:24 EDT    0.93   1.51    3  316    5  48.2  66.7 1026.9 29.9  1.022 -99.9 -99.99 -9.99
2019/09/19 06:30 EDT    0.99   1.57    2  295    5  47.7  66.7 1027.0 29.9  1.022 -99.9 -99.99 -9.99
2019/09/19 06:36 EDT    1.05   1.61    3  280    4  47.1  66.6 1027.1 30.0  1.022 -99.9 -99.99 -9.99
2019/09/19 06:42 EDT    1.12   1.65    3  290    4  47.3  66.6 1027.2 30.0  1.022 -99.9 -99.99 -9.99
2019/09/19 06:48 EDT    1.18   1.70    2  301    4  47.5  66.6 1027.3 30.0  1.022 -99.9 -99.99 -9.99
2019/09/19 06:54 EDT    1.24   1.79    2  308    4  47.5  66.6 1027.3 26.3  1.019 -99.9 -99.99 -9.99
2019/09/19 07:00 EDT    1.31   1.80    3  315    4  47.7  66.6 1027.3 30.0  1.022 -99.9 -99.99 -9.99
2019/09/19 07:06 EDT    1.37   1.80    3  317    4  47.8  66.6 1027.3 29.9  1.022 -99.9 -99.99 -9.99
2019/09/19 07:12 EDT    1.44   1.83    4  325    4  48.0  66.6 1027.4 30.0  1.022 -99.9 -99.99 -9.99
2019/09/19 07:18 EDT    1.50   1.89    3  324    4  48.7  66.6 1027.4 29.9  1.022 -99.9 -99.99 -9.99
2019/09/19 07:24 EDT    1.56   1.96    3  319    4  49.1  66.4 1027.4 30.0  1.022 -99.9 -99.99 -9.99
2019/09/19 07:30 EDT    1.63   2.04    2  320    4  49.8  66.4 1027.5 -9.9 -9.999 -99.9 -99.99 -9.99
2019/09/19 07:36 EDT    1.69   2.08    2  315    4  50.2  66.4 1027.5 30.0  1.022 -99.9 -99.99 -9.99
2019/09/19 07:42 EDT    1.75   2.11    2  319    4  50.5  66.4 1027.5 30.0  1.022 -99.9 -99.99 -9.99
2019/09/19 07:48 EDT    1.81   2.17    2  320    3  51.3  66.6 1027.5 29.8  1.022 -99.9 -99.99 -9.99
2019/09/19 07:54 EDT    1.87   2.17    5  339    7  52.2  66.4 1027.5 30.0  1.022 -99.9 -99.99 -9.99
2019/09/19 08:00 EDT    1.93   2.19    6  344    8  52.3  66.6 1027.7 29.9  1.022 -99.9 -99.99 -9.99
2019/09/19 08:06 EDT    1.99   2.25    7  340    9  52.3  66.4 1027.8 30.0  1.022 -99.9 -99.99 -9.99
2019/09/19 08:12 EDT    2.05   2.33    8  352   10  52.7  66.6 1027.8 29.9  1.022 -99.9 -99.99 -9.99
2019/09/19 08:18 EDT    2.10   2.39    7  357   10  53.2  66.6 1027.8 29.9  1.022 -99.9 -99.99 -9.99
2019/09/19 08:24 EDT    2.16   2.43    6  360   10  53.6  66.4 1028.0 30.0  1.022 -99.9 -99.99 -9.99
2019/09/19 08:30 EDT    2.22   2.48    7   10   10  54.0  66.6 1027.9 29.9  1.022 -99.9 -99.99 -9.99
2019/09/19 08:36 EDT    2.27   2.58   11    8   14  53.8  66.6 1027.9 27.6  1.020 -99.9 -99.99 -9.99
2019/09/19 08:42 EDT    2.33   2.65   11    5   13  54.3  66.6 1027.9 29.9  1.022 -99.9 -99.99 -9.99
2019/09/19 08:48 EDT    2.39   2.70   10    5   14  55.0  66.4 1027.8 30.0  1.022 -99.9 -99.99 -9.99
2019/09/19 08:54 EDT    2.45   2.77   11    2   14  55.4  66.4 1027.8 29.9  1.022 -99.9 -99.99 -9.99
2019/09/19 09:00 EDT    2.50   2.82   12    9   15  55.4  66.6 1027.8 29.9  1.022 -99.9 -99.99 -9.99
2019/09/19 09:06 EDT    2.56   2.85   11    5   14  55.4  66.6 1027.8 29.9  1.022 -99.9 -99.99 -9.99
2019/09/19 09:12 EDT    2.62   2.91   10    8   14  56.1  66.4 1027.8 30.0  1.022 -99.9 -99.99 -9.99
2019/09/19 09:18 EDT    2.68   3.00    9    9   14  56.1  66.6 1027.8 29.9  1.022 -99.9 -99.99 -9.99
2019/09/19 09:24 EDT    2.74   3.08    9   14   13  56.5  66.6 1027.9 29.9  1.022 -99.9 -99.99 -9.99
2019/09/19 09:30 EDT    2.79   3.14    9    1   13  56.8  66.4 1027.9 29.9  1.022 -99.9 -99.99 -9.99
2019/09/19 09:36 EDT    2.85   3.22    9  358   12  57.0  66.4 1027.9 30.0  1.022 -99.9 -99.99 -9.99
2019/09/19 09:42 EDT    2.91   3.29   10   17   11  57.4  66.6 1027.8 29.9  1.022 -99.9 -99.99 -9.99
2019/09/19 09:48 EDT    2.97   3.37   11   17   12  57.6  66.6 1027.8 29.9  1.022 -99.9 -99.99 -9.99
2019/09/19 09:54 EDT    3.03   3.43   11   25   14  57.7  66.4 1027.8 30.0  1.022 -99.9 -99.99 -9.99
2019/09/19 10:00 EDT    3.09   3.51   11   23   15  57.6  66.6 1027.8 29.9  1.022 -99.9 -99.99 -9.99
2019/09/19 10:06 EDT    3.14   3.58   11   32   13  58.1  66.6 1027.8 -9.9 -9.999 -99.9 -99.99 -9.99
2019/09/19 10:12 EDT    3.20   3.61   12   33   14  57.4  66.2 1027.9 30.0  1.022 -99.9 -99.99 -9.99
2019/09/19 10:18 EDT    3.25   3.66   10   13   12  57.9  66.2 1028.0 30.0  1.022 -99.9 -99.99 -9.99
2019/09/19 10:24 EDT    3.31   3.76   10   20   12  58.1  66.2 1028.0 30.0  1.022 -99.9 -99.99 -9.99
2019/09/19 10:30 EDT    3.36   3.86   11   21   14  58.3  66.2 1027.9 30.0  1.022 -99.9 -99.99 -9.99
2019/09/19 10:36 EDT    3.41   3.93   10   20   12  58.3  66.2 1027.8 30.0  1.022 -99.9 -99.99 -9.99
2019/09/19 10:42 EDT    3.45   3.96   10   23   13  58.3  66.2 1027.8 30.0  1.022 -99.9 -99.99 -9.99
2019/09/19 10:48 EDT    3.50   4.02   10   28   13  58.5  66.2 1027.8 30.0  1.022 -99.9 -99.99 -9.99
2019/09/19 10:54 EDT    3.54   4.07    8   24   11  58.3  66.2 1027.7 30.0  1.022 -99.9 -99.99 -9.99
2019/09/19 11:00 EDT    3.58   4.15    8   33   11  58.8  66.2 1027.6 29.9  1.022 -99.9 -99.99 -9.99
2019/09/19 11:06 EDT    3.61   4.21    8   42   13  58.8  66.2 1027.6 30.0  1.022 -99.9 -99.99 -9.99
2019/09/19 11:12 EDT    3.64   4.23    8   21   11  59.0  66.2 1027.6 30.0  1.022 -99.9 -99.99 -9.99
2019/09/19 11:18 EDT    3.67   4.25    7    4    9  59.4  66.2 1027.5 30.0  1.022 -99.9 -99.99 -9.99
2019/09/19 11:24 EDT    3.69   4.29    8   32   12  59.2  66.2 1027.6 30.0  1.022 -99.9 -99.99 -9.99
2019/09/19 11:30 EDT    3.71   4.32    8   24   11  59.5  66.6 1027.6 29.9  1.022 -99.9 -99.99 -9.99
2019/09/19 11:36 EDT    3.73   4.36    9   17   11  59.5  66.6 1027.5 29.9  1.022 -99.9 -99.99 -9.99
2019/09/19 11:42 EDT    3.74   4.38    7    4    9  59.5  66.6 1027.4 29.9  1.022 -99.9 -99.99 -9.99
2019/09/19 11:48 EDT    3.74   4.38    7   13   11  59.9  66.6 1027.4 -9.9 -9.999 -99.9 -99.99 -9.99
2019/09/19 11:54 EDT    3.74   4.39    7   24   10  59.9  66.6 1027.4 29.9  1.022 -99.9 -99.99 -9.99
2019/09/19 12:00 EDT    3.73   4.41    8   23   11  60.1  66.7 1027.5 29.9  1.022 -99.9 -99.99 -9.99
2019/09/19 12:06 EDT    3.72   4.40    5  347    9  60.4  66.7 1027.4 29.9  1.022 -99.9 -99.99 -9.99
2019/09/19 12:12 EDT    3.71   4.41    7   15   10  60.3  66.7 1027.4 29.9  1.022 -99.9 -99.99 -9.99
2019/09/19 12:18 EDT    3.69   4.40    7   16    9  60.6  66.7 1027.4 29.9  1.022 -99.9 -99.99 -9.99
2019/09/19 12:24 EDT    3.66   4.37    6   38    8  60.8  66.7 1027.4 29.9  1.022 -99.9 -99.99 -9.99
2019/09/19 12:30 EDT    3.63   4.33    6   33    9  60.6  66.7 1027.4 29.9  1.022 -99.9 -99.99 -9.99
2019/09/19 12:36 EDT    3.59   4.33    6   28    9  61.0  66.7 1027.3 29.9  1.022 -99.9 -99.99 -9.99
2019/09/19 12:42 EDT    3.55   4.29    6   17    8  61.2  66.7 1027.2 29.9  1.022 -99.9 -99.99 -9.99
2019/09/19 12:48 EDT    3.51   4.25    7   14    9  61.3  66.7 1027.1 29.9  1.022 -99.9 -99.99 -9.99
2019/09/19 12:54 EDT    3.46   4.20    5  347    9  61.7  66.7 1027.1 29.9  1.022 -99.9 -99.99 -9.99
2019/09/19 13:00 EDT    3.40   4.16    5   16    8  61.7  66.7 1027.1 29.9  1.022 -99.9 -99.99 -9.99
2019/09/19 13:06 EDT    3.35   4.11    4   56    7  61.7  66.7 1027.0 29.9  1.022 -99.9 -99.99 -9.99
2019/09/19 13:12 EDT    3.28   4.05    5   37    7  61.9  66.7 1026.9 29.0  1.021 -99.9 -99.99 -9.99
2019/09/19 13:18 EDT    3.22   3.96    7   36    8  62.2  66.7 1026.9 29.9  1.022 -99.9 -99.99 -9.99
2019/09/19 13:24 EDT    3.15   3.88    6   36    7  62.2  66.7 1026.8 29.9  1.022 -99.9 -99.99 -9.99
2019/09/19 13:30 EDT    3.08   3.78    4   35    7  62.6  66.7 1026.8 29.9  1.022 -99.9 -99.99 -9.99
2019/09/19 13:36 EDT    3.00   3.69    6   28    9  62.8  66.7 1026.7 29.9  1.022 -99.9 -99.99 -9.99
2019/09/19 13:42 EDT    2.93   3.65    6   28    8  63.1  66.7 1026.6 29.8  1.022 -99.9 -99.99 -9.99
2019/09/19 13:48 EDT    2.85   3.54    7   38    8  62.8  66.7 1026.6 29.9  1.022 -99.9 -99.99 -9.99
2019/09/19 13:54 EDT    2.76   3.43    6   30    8  63.0  66.7 1026.5 -9.9 -9.999 -99.9 -99.99 -9.99
2019/09/19 14:00 EDT    2.68   3.38    6   41    7  63.1  66.7 1026.5 -9.9 -9.999 -99.9 -99.99 -9.99
2019/09/19 14:06 EDT    2.59   3.32    5   31    7  63.3  66.7 1026.4 29.9  1.022 -99.9 -99.99 -9.99
2019/09/19 14:12 EDT    2.51   3.20    5   43    6  63.3  66.7 1026.3 29.9  1.022 -99.9 -99.99 -9.99
2019/09/19 14:18 EDT    2.42   3.10    5   42    6  63.7  66.7 1026.3 29.9  1.022 -99.9 -99.99 -9.99
2019/09/19 14:24 EDT    2.33   3.04    6   38    7  63.7  66.7 1026.3 29.9  1.022 -99.9 -99.99 -9.99
2019/09/19 14:30 EDT    2.24   2.93    5   40    7  63.9  66.7 1026.3 29.9  1.022 -99.9 -99.99 -9.99
2019/09/19 14:36 EDT    2.15   2.78    4   43    5  63.9  66.7 1026.2 29.9  1.022 -99.9 -99.99 -9.99
2019/09/19 14:42 EDT    2.07   2.72    4   57    5  64.0  66.7 1026.2 29.9  1.022 -99.9 -99.99 -9.99
2019/09/19 14:48 EDT    1.98   2.64    5   44    6  64.2  66.7 1026.1 29.9  1.022 -99.9 -99.99 -9.99
2019/09/19 14:54 EDT    1.89   2.50    4   48    5  64.6  66.7 1026.0 29.9  1.022 -99.9 -99.99 -9.99
2019/09/19 15:00 EDT    1.80   2.37    4   56    5  64.4  66.6 1026.0 30.0  1.022 -99.9 -99.99 -9.99
2019/09/19 15:06 EDT    1.72   2.28    4   56    5  64.6  66.7 1026.1 30.0  1.022 -99.9 -99.99 -9.99
2019/09/19 15:12 EDT    1.64   2.18    4   59    4  64.8  66.6 1026.0 30.0  1.022 -99.9 -99.99 -9.99
2019/09/19 15:18 EDT    1.55   2.04    4   61    6  64.9  66.6 1026.0 30.0  1.022 -99.9 -99.99 -9.99
2019/09/19 15:24 EDT    1.47   1.94    4   74    7  64.9  66.7 1025.9 30.0  1.022 -99.9 -99.99 -9.99
2019/09/19 15:30 EDT    1.40   1.88    3   79    4  65.1  66.7 1025.8 30.0  1.022 -99.9 -99.99 -9.99
2019/09/19 15:36 EDT    1.32   1.81    4   80    5  64.9  66.7 1025.7 30.0  1.022 -99.9 -99.99 -9.99
2019/09/19 15:42 EDT    1.25   1.68    4   87    5  65.1  66.9 1025.7 29.9  1.022 -99.9 -99.99 -9.99
2019/09/19 15:48 EDT    1.18   1.60    4   63    5  65.3  66.9 1025.5 29.9  1.022 -99.9 -99.99 -9.99
2019/09/19 15:54 EDT    1.12   1.56    3   60    4  65.5  66.6 1025.4 29.9  1.022 -99.9 -99.99 -9.99
2019/09/19 16:00 EDT    1.05   1.50    3   61    4  65.5  66.6 1025.4 29.9  1.022 -99.9 -99.99 -9.99
2019/09/19 16:06 EDT    1.00   1.42    4   55    4  65.7  66.6 1025.4 29.9  1.022 -99.9 -99.99 -9.99
2019/09/19 16:12 EDT    0.94   1.36    3   72    4  65.8  66.6 1025.4 29.9  1.022 -99.9 -99.99 -9.99
2019/09/19 16:18 EDT    0.89   1.31    3   64    5  65.8  66.6 1025.4 29.9  1.022 -99.9 -99.99 -9.99
2019/09/19 16:24 EDT    0.84   1.25    4   73    4  65.8  66.6 1025.4 29.9  1.022 -99.9 -99.99 -9.99
2019/09/19 16:30 EDT    0.80   1.20    4   72    4  65.8  66.6 1025.4 29.9  1.022 -99.9 -99.99 -9.99
2019/09/19 16:36 EDT    0.76   1.18    4   85    4  66.0  66.6 1025.4 30.0  1.022 -99.9 -99.99 -9.99
2019/09/19 16:42 EDT    0.73 -99.99 -999 -999 -999 -99.9 -99.9 -999.9 -9.9 -9.999 -99.9 -99.99 -9.99
2019/09/19 16:48 EDT    0.70 -99.99 -999 -999 -999 -99.9 -99.9 -999.9 -9.9 -9.999 -99.9 -99.99 -9.99
2019/09/19 16:54 EDT    0.67 -99.99 -999 -999 -999 -99.9 -99.9 -999.9 -9.9 -9.999 -99.9 -99.99 -9.99